<?xml version="1.0" encoding="UTF-8" standalone="no" ?>
<gpx xmlns="http://www.topografix.com/GPX/1/1" xmlns:xsi="http://www.w3.org/2001/XMLSchema-instance" xsi:schemaLocation="http://www.topografix.com/GPX/1/1 http://www.topografix.com/GPX/1/1/gpx.xsd" version="1.1" creator="VisuGPX - https://www.visugpx.com">
  <metadata>
    <name>La Féclaz - Saint Jean - Saint-Alban-Leysse</name>
  </metadata>
  <trk>
    <name><![CDATA[La Féclaz - Saint Jean - Saint-Alban-Leysse]]></name>
    <trkseg>
      <trkpt lat="45.64479" lon="5.98311">
        <ele>1312.308979</ele>
        <time>2024-07-22T08:50:40.589Z</time>
      </trkpt>
      <trkpt lat="45.6445" lon="5.98324">
        <ele>1312.308979</ele>
        <time>2024-07-22T08:50:44.883Z</time>
      </trkpt>
      <trkpt lat="45.64438" lon="5.98326">
        <ele>1312.308979</ele>
        <time>2024-07-22T08:50:46.624Z</time>
      </trkpt>
      <trkpt lat="45.64424" lon="5.98324">
        <ele>1312.308979</ele>
        <time>2024-07-22T08:50:48.585Z</time>
      </trkpt>
      <trkpt lat="45.64415" lon="5.98322">
        <ele>1312.308979</ele>
        <time>2024-07-22T08:50:49.813Z</time>
      </trkpt>
      <trkpt lat="45.64397" lon="5.98315">
        <ele>1312.308979</ele>
        <time>2024-07-22T08:50:52.286Z</time>
      </trkpt>
      <trkpt lat="45.64385" lon="5.98315">
        <ele>1311.986419</ele>
        <time>2024-07-22T08:50:53.847Z</time>
      </trkpt>
      <trkpt lat="45.64382" lon="5.98327">
        <ele>1311.461122</ele>
        <time>2024-07-22T08:50:55.036Z</time>
      </trkpt>
      <trkpt lat="45.64318" lon="5.98326">
        <ele>1307.747129</ele>
        <time>2024-07-22T08:51:03.368Z</time>
      </trkpt>
      <trkpt lat="45.64262" lon="5.9832">
        <ele>1304.481634</ele>
        <time>2024-07-22T08:51:10.545Z</time>
      </trkpt>
      <trkpt lat="45.64253" lon="5.9832">
        <ele>1303.947697</ele>
        <time>2024-07-22T08:51:11.731Z</time>
      </trkpt>
      <trkpt lat="45.64212" lon="5.98328">
        <ele>1301.692837</ele>
        <time>2024-07-22T08:51:16.973Z</time>
      </trkpt>
      <trkpt lat="45.64193" lon="5.98328">
        <ele>1301.00392</ele>
        <time>2024-07-22T08:51:19.465Z</time>
      </trkpt>
      <trkpt lat="45.64149" lon="5.9835">
        <ele>1299.318001</ele>
        <time>2024-07-22T08:51:25.798Z</time>
      </trkpt>
      <trkpt lat="45.64146" lon="5.98352">
        <ele>1299.217407</ele>
        <time>2024-07-22T08:51:26.192Z</time>
      </trkpt>
      <trkpt lat="45.6414" lon="5.98356">
        <ele>1298.988504</ele>
        <time>2024-07-22T08:51:27.092Z</time>
      </trkpt>
      <trkpt lat="45.64132" lon="5.98361">
        <ele>1298.66666</ele>
        <time>2024-07-22T08:51:28.348Z</time>
      </trkpt>
      <trkpt lat="45.64078" lon="5.98384">
        <ele>1296.645556</ele>
        <time>2024-07-22T08:51:36.717Z</time>
      </trkpt>
      <trkpt lat="45.64009" lon="5.9845">
        <ele>1294.69937</ele>
        <time>2024-07-22T08:51:49.913Z</time>
      </trkpt>
      <trkpt lat="45.63977" lon="5.98474">
        <ele>1294.168335</ele>
        <time>2024-07-22T08:51:55.931Z</time>
      </trkpt>
      <trkpt lat="45.63973" lon="5.98477">
        <ele>1294.104484</ele>
        <time>2024-07-22T08:51:56.624Z</time>
      </trkpt>
      <trkpt lat="45.63939" lon="5.98496">
        <ele>1293.560062</ele>
        <time>2024-07-22T08:52:02.633Z</time>
      </trkpt>
      <trkpt lat="45.63928" lon="5.98502">
        <ele>1293.387951</ele>
        <time>2024-07-22T08:52:04.549Z</time>
      </trkpt>
      <trkpt lat="45.63911" lon="5.98511">
        <ele>1293.113744</ele>
        <time>2024-07-22T08:52:07.582Z</time>
      </trkpt>
      <trkpt lat="45.63875" lon="5.98538">
        <ele>1292.602882</ele>
        <time>2024-07-22T08:52:14.139Z</time>
      </trkpt>
      <trkpt lat="45.63856" lon="5.9856">
        <ele>1292.365757</ele>
        <time>2024-07-22T08:52:18.099Z</time>
      </trkpt>
      <trkpt lat="45.63834" lon="5.98585">
        <ele>1292.084835</ele>
        <time>2024-07-22T08:52:22.703Z</time>
      </trkpt>
      <trkpt lat="45.6383" lon="5.9859">
        <ele>1292.029474</ele>
        <time>2024-07-22T08:52:23.622Z</time>
      </trkpt>
      <trkpt lat="45.63823" lon="5.98594">
        <ele>1291.956507</ele>
        <time>2024-07-22T08:52:24.814Z</time>
      </trkpt>
      <trkpt lat="45.63811" lon="5.98602">
        <ele>1291.828952</ele>
        <time>2024-07-22T08:52:26.888Z</time>
      </trkpt>
      <trkpt lat="45.63756" lon="5.98608">
        <ele>1291.28316</ele>
        <time>2024-07-22T08:52:36.322Z</time>
      </trkpt>
      <trkpt lat="45.63723" lon="5.98604">
        <ele>1291.021507</ele>
        <time>2024-07-22T08:52:42.404Z</time>
      </trkpt>
      <trkpt lat="45.63702" lon="5.9859">
        <ele>1291.177999</ele>
        <time>2024-07-22T08:52:46.783Z</time>
      </trkpt>
      <trkpt lat="45.63684" lon="5.98568">
        <ele>1291.340443</ele>
        <time>2024-07-22T08:52:51.694Z</time>
      </trkpt>
      <trkpt lat="45.63671" lon="5.98549">
        <ele>1291.467496</ele>
        <time>2024-07-22T08:52:55.860Z</time>
      </trkpt>
      <trkpt lat="45.63667" lon="5.98542">
        <ele>1291.509736</ele>
        <time>2024-07-22T08:52:57.198Z</time>
      </trkpt>
      <trkpt lat="45.63649" lon="5.98511">
        <ele>1291.706924</ele>
        <time>2024-07-22T08:53:04.628Z</time>
      </trkpt>
      <trkpt lat="45.63618" lon="5.98471">
        <ele>1291.991534</ele>
        <time>2024-07-22T08:53:15.434Z</time>
      </trkpt>
      <trkpt lat="45.63555" lon="5.98412">
        <ele>1292.826512</ele>
        <time>2024-07-22T08:53:36.424Z</time>
      </trkpt>
      <trkpt lat="45.63526" lon="5.98366">
        <ele>1293.468233</ele>
        <time>2024-07-22T08:53:49.511Z</time>
      </trkpt>
      <trkpt lat="45.63519" lon="5.98346">
        <ele>1293.704772</ele>
        <time>2024-07-22T08:53:54.024Z</time>
      </trkpt>
      <trkpt lat="45.63512" lon="5.98251">
        <ele>1294.69138</ele>
        <time>2024-07-22T08:54:12.950Z</time>
      </trkpt>
      <trkpt lat="45.63497" lon="5.98216">
        <ele>1295.131637</ele>
        <time>2024-07-22T08:54:21.570Z</time>
      </trkpt>
      <trkpt lat="45.63491" lon="5.98174">
        <ele>1295.599028</ele>
        <time>2024-07-22T08:54:30.487Z</time>
      </trkpt>
      <trkpt lat="45.63462" lon="5.9817">
        <ele>1296.052778</ele>
        <time>2024-07-22T08:54:42.216Z</time>
      </trkpt>
      <trkpt lat="45.63452" lon="5.98164">
        <ele>1296.21403</ele>
        <time>2024-07-22T08:54:46.337Z</time>
      </trkpt>
      <trkpt lat="45.63405" lon="5.98159">
        <ele>1296.948122</ele>
        <time>2024-07-22T08:55:05.011Z</time>
      </trkpt>
      <trkpt lat="45.63369" lon="5.98159">
        <ele>1297.512254</ele>
        <time>2024-07-22T08:55:19.014Z</time>
      </trkpt>
      <trkpt lat="45.63355" lon="5.98163">
        <ele>1297.745792</ele>
        <time>2024-07-22T08:55:24.642Z</time>
      </trkpt>
      <trkpt lat="45.63342" lon="5.98171">
        <ele>1298.000683</ele>
        <time>2024-07-22T08:55:30.196Z</time>
      </trkpt>
      <trkpt lat="45.63332" lon="5.98184">
        <ele>1298.231011</ele>
        <time>2024-07-22T08:55:35.306Z</time>
      </trkpt>
      <trkpt lat="45.63317" lon="5.98197">
        <ele>1298.532433</ele>
        <time>2024-07-22T08:55:42.082Z</time>
      </trkpt>
      <trkpt lat="45.63302" lon="5.98203">
        <ele>1298.80943</ele>
        <time>2024-07-22T08:55:48.375Z</time>
      </trkpt>
      <trkpt lat="45.63287" lon="5.98205">
        <ele>1299.063641</ele>
        <time>2024-07-22T08:55:54.302Z</time>
      </trkpt>
      <trkpt lat="45.63264" lon="5.98218">
        <ele>1299.49637</ele>
        <time>2024-07-22T08:56:04.573Z</time>
      </trkpt>
      <trkpt lat="45.6324" lon="5.98235">
        <ele>1299.954076</ele>
        <time>2024-07-22T08:56:15.630Z</time>
      </trkpt>
      <trkpt lat="45.63208" lon="5.98276">
        <ele>1300.705883</ele>
        <time>2024-07-22T08:56:33.623Z</time>
      </trkpt>
      <trkpt lat="45.63172" lon="5.98337">
        <ele>1301.351377</ele>
        <time>2024-07-22T08:56:56.539Z</time>
      </trkpt>
      <trkpt lat="45.63168" lon="5.98374">
        <ele>1301.635104</ele>
        <time>2024-07-22T08:57:07.063Z</time>
      </trkpt>
      <trkpt lat="45.63172" lon="5.98403">
        <ele>1301.861416</ele>
        <time>2024-07-22T08:57:15.005Z</time>
      </trkpt>
      <trkpt lat="45.63188" lon="5.9848">
        <ele>1302.46468</ele>
        <time>2024-07-22T08:57:35.539Z</time>
      </trkpt>
      <trkpt lat="45.63203" lon="5.98519">
        <ele>1302.749453</ele>
        <time>2024-07-22T08:57:45.988Z</time>
      </trkpt>
      <trkpt lat="45.63147" lon="5.98638">
        <ele>1301.821636</ele>
        <time>2024-07-22T08:58:15.577Z</time>
      </trkpt>
      <trkpt lat="45.63131" lon="5.9865">
        <ele>1301.650952</ele>
        <time>2024-07-22T08:58:20.507Z</time>
      </trkpt>
      <trkpt lat="45.63112" lon="5.98654">
        <ele>1301.476684</ele>
        <time>2024-07-22T08:58:25.717Z</time>
      </trkpt>
      <trkpt lat="45.6308" lon="5.9864">
        <ele>1301.165413</ele>
        <time>2024-07-22T08:58:35.133Z</time>
      </trkpt>
      <trkpt lat="45.6305" lon="5.98621">
        <ele>1301.393937</ele>
        <time>2024-07-22T08:58:44.848Z</time>
      </trkpt>
      <trkpt lat="45.63021" lon="5.9863">
        <ele>1301.70751</ele>
        <time>2024-07-22T08:58:54.270Z</time>
      </trkpt>
      <trkpt lat="45.62994" lon="5.98644">
        <ele>1302.012148</ele>
        <time>2024-07-22T08:59:04.187Z</time>
      </trkpt>
      <trkpt lat="45.62973" lon="5.98628">
        <ele>1302.26593</ele>
        <time>2024-07-22T08:59:13.681Z</time>
      </trkpt>
      <trkpt lat="45.62954" lon="5.98611">
        <ele>1302.504208</ele>
        <time>2024-07-22T08:59:23.171Z</time>
      </trkpt>
      <trkpt lat="45.629" lon="5.98553">
        <ele>1303.699645</ele>
        <time>2024-07-22T08:59:53.140Z</time>
      </trkpt>
      <trkpt lat="45.62888" lon="5.98544">
        <ele>1304.220601</ele>
        <time>2024-07-22T08:59:59.816Z</time>
      </trkpt>
      <trkpt lat="45.62873" lon="5.98539">
        <ele>1304.784208</ele>
        <time>2024-07-22T09:00:07.030Z</time>
      </trkpt>
      <trkpt lat="45.62859" lon="5.98529">
        <ele>1305.370411</ele>
        <time>2024-07-22T09:00:15.426Z</time>
      </trkpt>
      <trkpt lat="45.62845" lon="5.98507">
        <ele>1306.153946</ele>
        <time>2024-07-22T09:00:26.767Z</time>
      </trkpt>
      <trkpt lat="45.62818" lon="5.98485">
        <ele>1307.289899</ele>
        <time>2024-07-22T09:00:43.118Z</time>
      </trkpt>
      <trkpt lat="45.62785" lon="5.98441">
        <ele>1308.980961</ele>
        <time>2024-07-22T09:01:06.939Z</time>
      </trkpt>
      <trkpt lat="45.62763" lon="5.98429">
        <ele>1309.750522</ele>
        <time>2024-07-22T09:01:18.865Z</time>
      </trkpt>
      <trkpt lat="45.62721" lon="5.98393">
        <ele>1310.325582</ele>
        <time>2024-07-22T09:01:43.074Z</time>
      </trkpt>
      <trkpt lat="45.62702" lon="5.98353">
        <ele>1310.725148</ele>
        <time>2024-07-22T09:01:58.685Z</time>
      </trkpt>
      <trkpt lat="45.62688" lon="5.98329">
        <ele>1310.976667</ele>
        <time>2024-07-22T09:02:07.775Z</time>
      </trkpt>
      <trkpt lat="45.62613" lon="5.98255">
        <ele>1310.498865</ele>
        <time>2024-07-22T09:02:34.502Z</time>
      </trkpt>
      <trkpt lat="45.62595" lon="5.98247">
        <ele>1309.203591</ele>
        <time>2024-07-22T09:02:39.247Z</time>
      </trkpt>
      <trkpt lat="45.62554" lon="5.98236">
        <ele>1306.388058</ele>
        <time>2024-07-22T09:02:49.174Z</time>
      </trkpt>
      <trkpt lat="45.62537" lon="5.98238">
        <ele>1305.291345</ele>
        <time>2024-07-22T09:02:52.904Z</time>
      </trkpt>
      <trkpt lat="45.62466" lon="5.98306">
        <ele>1299.442923</ele>
        <time>2024-07-22T09:03:11.543Z</time>
      </trkpt>
      <trkpt lat="45.62455" lon="5.9831">
        <ele>1298.373298</ele>
        <time>2024-07-22T09:03:13.831Z</time>
      </trkpt>
      <trkpt lat="45.62435" lon="5.98297">
        <ele>1296.175963</ele>
        <time>2024-07-22T09:03:18.569Z</time>
      </trkpt>
      <trkpt lat="45.62423" lon="5.98295">
        <ele>1294.99424</ele>
        <time>2024-07-22T09:03:21.101Z</time>
      </trkpt>
      <trkpt lat="45.62414" lon="5.98306">
        <ele>1293.835372</ele>
        <time>2024-07-22T09:03:23.596Z</time>
      </trkpt>
      <trkpt lat="45.62404" lon="5.98311">
        <ele>1292.821445</ele>
        <time>2024-07-22T09:03:25.752Z</time>
      </trkpt>
      <trkpt lat="45.62391" lon="5.98301">
        <ele>1291.353827</ele>
        <time>2024-07-22T09:03:28.901Z</time>
      </trkpt>
      <trkpt lat="45.6236" lon="5.98311">
        <ele>1288.216165</ele>
        <time>2024-07-22T09:03:35.685Z</time>
      </trkpt>
      <trkpt lat="45.62321" lon="5.98347">
        <ele>1283.670881</ele>
        <time>2024-07-22T09:03:45.803Z</time>
      </trkpt>
      <trkpt lat="45.62307" lon="5.98351">
        <ele>1282.326735</ele>
        <time>2024-07-22T09:03:48.937Z</time>
      </trkpt>
      <trkpt lat="45.62264" lon="5.98311">
        <ele>1279.982085</ele>
        <time>2024-07-22T09:04:00.997Z</time>
      </trkpt>
      <trkpt lat="45.62223" lon="5.98306">
        <ele>1278.172342</ele>
        <time>2024-07-22T09:04:11.152Z</time>
      </trkpt>
      <trkpt lat="45.62209" lon="5.98304">
        <ele>1277.568998</ele>
        <time>2024-07-22T09:04:14.656Z</time>
      </trkpt>
      <trkpt lat="45.62141" lon="5.9822">
        <ele>1273.999237</ele>
        <time>2024-07-22T09:04:38.448Z</time>
      </trkpt>
      <trkpt lat="45.61994" lon="5.9817">
        <ele>1270.744155</ele>
        <time>2024-07-22T09:05:20.469Z</time>
      </trkpt>
      <trkpt lat="45.61921" lon="5.98127">
        <ele>1267.896119</ele>
        <time>2024-07-22T09:05:40.758Z</time>
      </trkpt>
      <trkpt lat="45.61896" lon="5.98105">
        <ele>1266.772164</ele>
        <time>2024-07-22T09:05:47.985Z</time>
      </trkpt>
      <trkpt lat="45.61834" lon="5.98089">
        <ele>1264.298243</ele>
        <time>2024-07-22T09:06:03.680Z</time>
      </trkpt>
      <trkpt lat="45.61817" lon="5.9809">
        <ele>1263.619055</ele>
        <time>2024-07-22T09:06:07.963Z</time>
      </trkpt>
      <trkpt lat="45.61785" lon="5.98112">
        <ele>1261.476719</ele>
        <time>2024-07-22T09:06:16.525Z</time>
      </trkpt>
      <trkpt lat="45.61778" lon="5.98132">
        <ele>1260.502344</ele>
        <time>2024-07-22T09:06:20.175Z</time>
      </trkpt>
      <trkpt lat="45.61763" lon="5.98146">
        <ele>1259.395162</ele>
        <time>2024-07-22T09:06:24.256Z</time>
      </trkpt>
      <trkpt lat="45.61745" lon="5.9815">
        <ele>1258.218834</ele>
        <time>2024-07-22T09:06:28.557Z</time>
      </trkpt>
      <trkpt lat="45.61728" lon="5.98149">
        <ele>1257.10031</ele>
        <time>2024-07-22T09:06:32.596Z</time>
      </trkpt>
      <trkpt lat="45.61683" lon="5.98139">
        <ele>1254.204366</ele>
        <time>2024-07-22T09:06:42.927Z</time>
      </trkpt>
      <trkpt lat="45.6163" lon="5.9814">
        <ele>1250.265999</ele>
        <time>2024-07-22T09:06:54.736Z</time>
      </trkpt>
      <trkpt lat="45.61607" lon="5.98127">
        <ele>1247.894522</ele>
        <time>2024-07-22T09:07:00.178Z</time>
      </trkpt>
      <trkpt lat="45.61585" lon="5.98124">
        <ele>1245.765601</ele>
        <time>2024-07-22T09:07:05.037Z</time>
      </trkpt>
      <trkpt lat="45.61563" lon="5.98126">
        <ele>1243.633279</ele>
        <time>2024-07-22T09:07:09.837Z</time>
      </trkpt>
      <trkpt lat="45.61532" lon="5.98135">
        <ele>1240.605491</ele>
        <time>2024-07-22T09:07:16.620Z</time>
      </trkpt>
      <trkpt lat="45.61505" lon="5.98153">
        <ele>1237.819547</ele>
        <time>2024-07-22T09:07:22.798Z</time>
      </trkpt>
      <trkpt lat="45.61484" lon="5.98161">
        <ele>1235.656475</ele>
        <time>2024-07-22T09:07:27.607Z</time>
      </trkpt>
      <trkpt lat="45.61429" lon="5.98155">
        <ele>1230.23606</ele>
        <time>2024-07-22T09:07:39.117Z</time>
      </trkpt>
      <trkpt lat="45.61397" lon="5.9816">
        <ele>1226.99</ele>
        <time>2024-07-22T09:07:46.005Z</time>
      </trkpt>
      <trkpt lat="45.6138" lon="5.98149">
        <ele>1225.097979</ele>
        <time>2024-07-22T09:07:50.021Z</time>
      </trkpt>
      <trkpt lat="45.61364" lon="5.98154">
        <ele>1223.428219</ele>
        <time>2024-07-22T09:07:53.581Z</time>
      </trkpt>
      <trkpt lat="45.61341" lon="5.98177">
        <ele>1220.586204</ele>
        <time>2024-07-22T09:07:59.647Z</time>
      </trkpt>
      <trkpt lat="45.61331" lon="5.98207">
        <ele>1218.236317</ele>
        <time>2024-07-22T09:08:04.668Z</time>
      </trkpt>
      <trkpt lat="45.61321" lon="5.98218">
        <ele>1216.976561</ele>
        <time>2024-07-22T09:08:07.385Z</time>
      </trkpt>
      <trkpt lat="45.61315" lon="5.98238">
        <ele>1215.618026</ele>
        <time>2024-07-22T09:08:10.644Z</time>
      </trkpt>
      <trkpt lat="45.61244" lon="5.98287">
        <ele>1208.829846</ele>
        <time>2024-07-22T09:08:27.956Z</time>
      </trkpt>
      <trkpt lat="45.61208" lon="5.98293">
        <ele>1205.697626</ele>
        <time>2024-07-22T09:08:36.044Z</time>
      </trkpt>
      <trkpt lat="45.61172" lon="5.98344">
        <ele>1201.350692</ele>
        <time>2024-07-22T09:08:47.266Z</time>
      </trkpt>
      <trkpt lat="45.61174" lon="5.98385">
        <ele>1198.536496</ele>
        <time>2024-07-22T09:09:03.249Z</time>
      </trkpt>
      <trkpt lat="45.61196" lon="5.9845">
        <ele>1193.598519</ele>
        <time>2024-07-22T09:09:30.666Z</time>
      </trkpt>
      <trkpt lat="45.61194" lon="5.98474">
        <ele>1191.923681</ele>
        <time>2024-07-22T09:09:39.845Z</time>
      </trkpt>
      <trkpt lat="45.61166" lon="5.98539">
        <ele>1186.687288</ele>
        <time>2024-07-22T09:10:08.319Z</time>
      </trkpt>
      <trkpt lat="45.61154" lon="5.98579">
        <ele>1183.631998</ele>
        <time>2024-07-22T09:10:24.791Z</time>
      </trkpt>
      <trkpt lat="45.61145" lon="5.98597">
        <ele>1181.931817</ele>
        <time>2024-07-22T09:10:32.612Z</time>
      </trkpt>
      <trkpt lat="45.61134" lon="5.98641">
        <ele>1178.131022</ele>
        <time>2024-07-22T09:10:49.619Z</time>
      </trkpt>
      <trkpt lat="45.61121" lon="5.98671">
        <ele>1175.18874</ele>
        <time>2024-07-22T09:11:02.770Z</time>
      </trkpt>
      <trkpt lat="45.61116" lon="5.98697">
        <ele>1172.998217</ele>
        <time>2024-07-22T09:11:12.517Z</time>
      </trkpt>
      <trkpt lat="45.61119" lon="5.98734">
        <ele>1169.911743</ele>
        <time>2024-07-22T09:11:18.014Z</time>
      </trkpt>
      <trkpt lat="45.61117" lon="5.98769">
        <ele>1167.052854</ele>
        <time>2024-07-22T09:11:23.121Z</time>
      </trkpt>
      <trkpt lat="45.61118" lon="5.988">
        <ele>1164.520529</ele>
        <time>2024-07-22T09:11:27.629Z</time>
      </trkpt>
      <trkpt lat="45.61115" lon="5.98807">
        <ele>1163.776086</ele>
        <time>2024-07-22T09:11:28.962Z</time>
      </trkpt>
      <trkpt lat="45.61088" lon="5.98841">
        <ele>1160.355404</ele>
        <time>2024-07-22T09:11:36.585Z</time>
      </trkpt>
      <trkpt lat="45.61103" lon="5.98879">
        <ele>1157.783996</ele>
        <time>2024-07-22T09:11:52.978Z</time>
      </trkpt>
      <trkpt lat="45.61098" lon="5.98926">
        <ele>1155.037341</ele>
        <time>2024-07-22T09:12:10.714Z</time>
      </trkpt>
      <trkpt lat="45.6109" lon="5.98942">
        <ele>1153.871505</ele>
        <time>2024-07-22T09:12:18.376Z</time>
      </trkpt>
      <trkpt lat="45.61081" lon="5.98974">
        <ele>1151.852936</ele>
        <time>2024-07-22T09:12:31.911Z</time>
      </trkpt>
      <trkpt lat="45.61073" lon="5.98983">
        <ele>1151.016984</ele>
        <time>2024-07-22T09:12:37.528Z</time>
      </trkpt>
      <trkpt lat="45.61068" lon="5.98984">
        <ele>1150.61263</ele>
        <time>2024-07-22T09:12:40.261Z</time>
      </trkpt>
      <trkpt lat="45.61021" lon="5.98987">
        <ele>1147.152586</ele>
        <time>2024-07-22T09:12:51.548Z</time>
      </trkpt>
      <trkpt lat="45.61011" lon="5.98991">
        <ele>1146.936527</ele>
        <time>2024-07-22T09:12:54.035Z</time>
      </trkpt>
      <trkpt lat="45.61001" lon="5.99">
        <ele>1146.676087</ele>
        <time>2024-07-22T09:12:56.963Z</time>
      </trkpt>
      <trkpt lat="45.60995" lon="5.9901">
        <ele>1146.476377</ele>
        <time>2024-07-22T09:12:59.238Z</time>
      </trkpt>
      <trkpt lat="45.60973" lon="5.99">
        <ele>1145.974072</ele>
        <time>2024-07-22T09:13:05.278Z</time>
      </trkpt>
      <trkpt lat="45.60936" lon="5.98999">
        <ele>1145.187282</ele>
        <time>2024-07-22T09:13:15.059Z</time>
      </trkpt>
      <trkpt lat="45.60912" lon="5.98992">
        <ele>1144.641313</ele>
        <time>2024-07-22T09:13:22.294Z</time>
      </trkpt>
      <trkpt lat="45.60881" lon="5.98989">
        <ele>1143.9797</ele>
        <time>2024-07-22T09:13:31.480Z</time>
      </trkpt>
      <trkpt lat="45.60836" lon="5.98963">
        <ele>1144.674209</ele>
        <time>2024-07-22T09:13:48.132Z</time>
      </trkpt>
      <trkpt lat="45.60776" lon="5.98941">
        <ele>1147.897082</ele>
        <time>2024-07-22T09:14:11.799Z</time>
      </trkpt>
      <trkpt lat="45.60741" lon="5.98939">
        <ele>1149.760083</ele>
        <time>2024-07-22T09:14:34.148Z</time>
      </trkpt>
      <trkpt lat="45.6072" lon="5.98933">
        <ele>1150.871786</ele>
        <time>2024-07-22T09:14:50.747Z</time>
      </trkpt>
      <trkpt lat="45.60677" lon="5.98922">
        <ele>1153.826794</ele>
        <time>2024-07-22T09:15:27.939Z</time>
      </trkpt>
      <trkpt lat="45.60656" lon="5.98899">
        <ele>1157.951809</ele>
        <time>2024-07-22T09:15:52.155Z</time>
      </trkpt>
      <trkpt lat="45.6065" lon="5.98896">
        <ele>1158.980503</ele>
        <time>2024-07-22T09:15:58.894Z</time>
      </trkpt>
      <trkpt lat="45.60642" lon="5.98894">
        <ele>1160.174371</ele>
        <time>2024-07-22T09:16:05.172Z</time>
      </trkpt>
      <trkpt lat="45.60637" lon="5.98899">
        <ele>1161.185622</ele>
        <time>2024-07-22T09:16:11.548Z</time>
      </trkpt>
      <trkpt lat="45.6063" lon="5.98916">
        <ele>1163.299086</ele>
        <time>2024-07-22T09:16:25.346Z</time>
      </trkpt>
      <trkpt lat="45.60624" lon="5.9893">
        <ele>1165.214194</ele>
        <time>2024-07-22T09:16:38.326Z</time>
      </trkpt>
      <trkpt lat="45.60617" lon="5.98934">
        <ele>1166.381592</ele>
        <time>2024-07-22T09:16:46.227Z</time>
      </trkpt>
      <trkpt lat="45.60604" lon="5.98927">
        <ele>1168.483241</ele>
        <time>2024-07-22T09:17:01.434Z</time>
      </trkpt>
      <trkpt lat="45.606" lon="5.98942">
        <ele>1170.328885</ele>
        <time>2024-07-22T09:17:16.009Z</time>
      </trkpt>
      <trkpt lat="45.60601" lon="5.98978">
        <ele>1174.210511</ele>
        <time>2024-07-22T09:17:45.495Z</time>
      </trkpt>
      <trkpt lat="45.60596" lon="5.98997">
        <ele>1176.476683</ele>
        <time>2024-07-22T09:18:03.763Z</time>
      </trkpt>
      <trkpt lat="45.60598" lon="5.99006">
        <ele>1177.522112</ele>
        <time>2024-07-22T09:18:11.902Z</time>
      </trkpt>
      <trkpt lat="45.60602" lon="5.99017">
        <ele>1178.839504</ele>
        <time>2024-07-22T09:18:22.881Z</time>
      </trkpt>
      <trkpt lat="45.60612" lon="5.99013">
        <ele>1180.459328</ele>
        <time>2024-07-22T09:18:37.345Z</time>
      </trkpt>
      <trkpt lat="45.6062" lon="5.99029">
        <ele>1182.942929</ele>
        <time>2024-07-22T09:18:55.854Z</time>
      </trkpt>
      <trkpt lat="45.60619" lon="5.99051">
        <ele>1185.755924</ele>
        <time>2024-07-22T09:19:17.431Z</time>
      </trkpt>
      <trkpt lat="45.6061" lon="5.99057">
        <ele>1187.611572</ele>
        <time>2024-07-22T09:19:32.389Z</time>
      </trkpt>
      <trkpt lat="45.60592" lon="5.99049">
        <ele>1190.990384</ele>
        <time>2024-07-22T09:19:57.656Z</time>
      </trkpt>
      <trkpt lat="45.60578" lon="5.99052">
        <ele>1193.607869</ele>
        <time>2024-07-22T09:20:16.559Z</time>
      </trkpt>
      <trkpt lat="45.60573" lon="5.99039">
        <ele>1195.539008</ele>
        <time>2024-07-22T09:20:29.864Z</time>
      </trkpt>
      <trkpt lat="45.60561" lon="5.99044">
        <ele>1197.725622</ele>
        <time>2024-07-22T09:20:44.608Z</time>
      </trkpt>
      <trkpt lat="45.60545" lon="5.99031">
        <ele>1201.066653</ele>
        <time>2024-07-22T09:21:06.798Z</time>
      </trkpt>
      <trkpt lat="45.60532" lon="5.99037">
        <ele>1203.597632</ele>
        <time>2024-07-22T09:21:22.893Z</time>
      </trkpt>
      <trkpt lat="45.60513" lon="5.9906">
        <ele>1208.166022</ele>
        <time>2024-07-22T09:21:52.428Z</time>
      </trkpt>
      <trkpt lat="45.605" lon="5.99069">
        <ele>1210.655483</ele>
        <time>2024-07-22T09:22:08.150Z</time>
      </trkpt>
      <trkpt lat="45.60469" lon="5.991">
        <ele>1216.468383</ele>
        <time>2024-07-22T09:22:51.695Z</time>
      </trkpt>
      <trkpt lat="45.60403" lon="5.99153">
        <ele>1225.991908</ele>
        <time>2024-07-22T09:24:07.926Z</time>
      </trkpt>
      <trkpt lat="45.60378" lon="5.99176">
        <ele>1229.707283</ele>
        <time>2024-07-22T09:24:35.330Z</time>
      </trkpt>
      <trkpt lat="45.6037" lon="5.992">
        <ele>1232.032958</ele>
        <time>2024-07-22T09:24:50.576Z</time>
      </trkpt>
      <trkpt lat="45.60356" lon="5.9921">
        <ele>1233.953873</ele>
        <time>2024-07-22T09:25:03.960Z</time>
      </trkpt>
      <trkpt lat="45.60359" lon="5.99204">
        <ele>1234.544058</ele>
        <time>2024-07-22T09:25:07.440Z</time>
      </trkpt>
      <trkpt lat="45.60361" lon="5.99173">
        <ele>1236.981081</ele>
        <time>2024-07-22T09:25:24.107Z</time>
      </trkpt>
      <trkpt lat="45.60357" lon="5.99163">
        <ele>1237.612776</ele>
        <time>2024-07-22T09:25:30.531Z</time>
      </trkpt>
      <trkpt lat="45.60354" lon="5.99132">
        <ele>1239.345277</ele>
        <time>2024-07-22T09:25:45.626Z</time>
      </trkpt>
      <trkpt lat="45.60347" lon="5.99121">
        <ele>1240.180714</ele>
        <time>2024-07-22T09:25:53.626Z</time>
      </trkpt>
      <trkpt lat="45.60329" lon="5.9911">
        <ele>1241.663313</ele>
        <time>2024-07-22T09:26:06.154Z</time>
      </trkpt>
      <trkpt lat="45.60322" lon="5.99111">
        <ele>1242.189518</ele>
        <time>2024-07-22T09:26:10.478Z</time>
      </trkpt>
      <trkpt lat="45.60308" lon="5.99088">
        <ele>1243.844902</ele>
        <time>2024-07-22T09:26:25.429Z</time>
      </trkpt>
      <trkpt lat="45.60305" lon="5.99074">
        <ele>1244.644967</ele>
        <time>2024-07-22T09:26:32.297Z</time>
      </trkpt>
      <trkpt lat="45.60307" lon="5.99061">
        <ele>1245.382473</ele>
        <time>2024-07-22T09:26:39.134Z</time>
      </trkpt>
      <trkpt lat="45.60316" lon="5.99043">
        <ele>1246.59576</ele>
        <time>2024-07-22T09:26:50.563Z</time>
      </trkpt>
      <trkpt lat="45.60322" lon="5.99005">
        <ele>1248.737375</ele>
        <time>2024-07-22T09:27:09.849Z</time>
      </trkpt>
      <trkpt lat="45.6032" lon="5.98979">
        <ele>1250.188553</ele>
        <time>2024-07-22T09:27:22.296Z</time>
      </trkpt>
      <trkpt lat="45.60312" lon="5.98947">
        <ele>1252.070647</ele>
        <time>2024-07-22T09:27:37.879Z</time>
      </trkpt>
      <trkpt lat="45.60301" lon="5.98926">
        <ele>1253.556256</ele>
        <time>2024-07-22T09:27:50.195Z</time>
      </trkpt>
      <trkpt lat="45.60271" lon="5.98898">
        <ele>1256.434472</ele>
        <time>2024-07-22T09:28:13.145Z</time>
      </trkpt>
      <trkpt lat="45.60237" lon="5.98876">
        <ele>1259.417496</ele>
        <time>2024-07-22T09:28:37.769Z</time>
      </trkpt>
      <trkpt lat="45.60215" lon="5.9886">
        <ele>1261.340921</ele>
        <time>2024-07-22T09:28:54.933Z</time>
      </trkpt>
      <trkpt lat="45.60207" lon="5.98839">
        <ele>1262.699705</ele>
        <time>2024-07-22T09:29:07.758Z</time>
      </trkpt>
      <trkpt lat="45.60209" lon="5.98822">
        <ele>1263.668517</ele>
        <time>2024-07-22T09:29:17.383Z</time>
      </trkpt>
      <trkpt lat="45.60201" lon="5.98804">
        <ele>1264.864675</ele>
        <time>2024-07-22T09:29:30.264Z</time>
      </trkpt>
      <trkpt lat="45.60188" lon="5.98788">
        <ele>1266.945056</ele>
        <time>2024-07-22T09:29:44.799Z</time>
      </trkpt>
      <trkpt lat="45.60138" lon="5.98751">
        <ele>1273.978817</ele>
        <time>2024-07-22T09:30:35.987Z</time>
      </trkpt>
      <trkpt lat="45.60126" lon="5.98748">
        <ele>1275.588641</ele>
        <time>2024-07-22T09:30:47.105Z</time>
      </trkpt>
      <trkpt lat="45.60096" lon="5.98752">
        <ele>1279.280227</ele>
        <time>2024-07-22T09:31:13.732Z</time>
      </trkpt>
      <trkpt lat="45.60081" lon="5.98749">
        <ele>1281.221764</ele>
        <time>2024-07-22T09:31:29.638Z</time>
      </trkpt>
      <trkpt lat="45.6003" lon="5.98761">
        <ele>1287.72117</ele>
        <time>2024-07-22T09:32:24.277Z</time>
      </trkpt>
      <trkpt lat="45.60011" lon="5.9875">
        <ele>1290.379379</ele>
        <time>2024-07-22T09:32:47.088Z</time>
      </trkpt>
      <trkpt lat="45.59986" lon="5.98742">
        <ele>1293.832056</ele>
        <time>2024-07-22T09:33:16.018Z</time>
      </trkpt>
      <trkpt lat="45.59958" lon="5.98742">
        <ele>1297.413744</ele>
        <time>2024-07-22T09:33:45.358Z</time>
      </trkpt>
      <trkpt lat="45.59925" lon="5.98752">
        <ele>1301.841281</ele>
        <time>2024-07-22T09:34:17.605Z</time>
      </trkpt>
      <trkpt lat="45.59906" lon="5.98774">
        <ele>1305.035597</ele>
        <time>2024-07-22T09:34:42.033Z</time>
      </trkpt>
      <trkpt lat="45.59888" lon="5.98787">
        <ele>1307.667685</ele>
        <time>2024-07-22T09:35:00.146Z</time>
      </trkpt>
      <trkpt lat="45.59857" lon="5.988">
        <ele>1311.314695</ele>
        <time>2024-07-22T09:35:28.247Z</time>
      </trkpt>
      <trkpt lat="45.59853" lon="5.98801">
        <ele>1311.432395</ele>
        <time>2024-07-22T09:35:31.219Z</time>
      </trkpt>
      <trkpt lat="45.59829" lon="5.988">
        <ele>1312.169982</ele>
        <time>2024-07-22T09:35:50.900Z</time>
      </trkpt>
      <trkpt lat="45.59809" lon="5.98788">
        <ele>1312.803471</ele>
        <time>2024-07-22T09:36:06.122Z</time>
      </trkpt>
      <trkpt lat="45.59798" lon="5.98785">
        <ele>1313.137812</ele>
        <time>2024-07-22T09:36:13.032Z</time>
      </trkpt>
      <trkpt lat="45.5979" lon="5.9879">
        <ele>1313.41826</ele>
        <time>2024-07-22T09:36:18.847Z</time>
      </trkpt>
      <trkpt lat="45.59783" lon="5.98791">
        <ele>1313.618568</ele>
        <time>2024-07-22T09:36:22.239Z</time>
      </trkpt>
      <trkpt lat="45.59775" lon="5.98807">
        <ele>1314.038011</ele>
        <time>2024-07-22T09:36:30.406Z</time>
      </trkpt>
      <trkpt lat="45.5977" lon="5.98816">
        <ele>1314.272613</ele>
        <time>2024-07-22T09:36:36.810Z</time>
      </trkpt>
      <trkpt lat="45.59776" lon="5.98822">
        <ele>1314.498663</ele>
        <time>2024-07-22T09:36:42.886Z</time>
      </trkpt>
      <trkpt lat="45.59782" lon="5.98823">
        <ele>1314.669303</ele>
        <time>2024-07-22T09:36:46.951Z</time>
      </trkpt>
      <trkpt lat="45.59784" lon="5.98832">
        <ele>1314.863585</ele>
        <time>2024-07-22T09:36:52.084Z</time>
      </trkpt>
      <trkpt lat="45.59783" lon="5.98848">
        <ele>1315.208901</ele>
        <time>2024-07-22T09:36:59.949Z</time>
      </trkpt>
      <trkpt lat="45.59775" lon="5.98858">
        <ele>1315.526377</ele>
        <time>2024-07-22T09:37:06.850Z</time>
      </trkpt>
      <trkpt lat="45.59763" lon="5.98864">
        <ele>1315.902434</ele>
        <time>2024-07-22T09:37:14.483Z</time>
      </trkpt>
      <trkpt lat="45.59756" lon="5.98877">
        <ele>1316.256757</ele>
        <time>2024-07-22T09:37:21.507Z</time>
      </trkpt>
      <trkpt lat="45.59755" lon="5.98884">
        <ele>1316.395785</ele>
        <time>2024-07-22T09:37:24.126Z</time>
      </trkpt>
      <trkpt lat="45.59765" lon="5.98899">
        <ele>1315.648305</ele>
        <time>2024-07-22T09:37:32.015Z</time>
      </trkpt>
      <trkpt lat="45.59759" lon="5.98936">
        <ele>1313.479494</ele>
        <time>2024-07-22T09:37:46.828Z</time>
      </trkpt>
      <trkpt lat="45.59746" lon="5.98982">
        <ele>1310.723426</ele>
        <time>2024-07-22T09:38:05.709Z</time>
      </trkpt>
      <trkpt lat="45.59744" lon="5.99">
        <ele>1309.644552</ele>
        <time>2024-07-22T09:38:12.863Z</time>
      </trkpt>
      <trkpt lat="45.5975" lon="5.99018">
        <ele>1308.500785</ele>
        <time>2024-07-22T09:38:20.383Z</time>
      </trkpt>
      <trkpt lat="45.59748" lon="5.99036">
        <ele>1307.469685</ele>
        <time>2024-07-22T09:38:27.232Z</time>
      </trkpt>
      <trkpt lat="45.5975" lon="5.99042">
        <ele>1307.098628</ele>
        <time>2024-07-22T09:38:29.725Z</time>
      </trkpt>
      <trkpt lat="45.59745" lon="5.9905">
        <ele>1306.462364</ele>
        <time>2024-07-22T09:38:33.981Z</time>
      </trkpt>
      <trkpt lat="45.59735" lon="5.99079">
        <ele>1304.667321</ele>
        <time>2024-07-22T09:38:46.120Z</time>
      </trkpt>
      <trkpt lat="45.59723" lon="5.99098">
        <ele>1303.224434</ele>
        <time>2024-07-22T09:38:55.896Z</time>
      </trkpt>
      <trkpt lat="45.59716" lon="5.99121">
        <ele>1301.868442</ele>
        <time>2024-07-22T09:39:05.562Z</time>
      </trkpt>
      <trkpt lat="45.59716" lon="5.99129">
        <ele>1301.549348</ele>
        <time>2024-07-22T09:39:08.781Z</time>
      </trkpt>
      <trkpt lat="45.59722" lon="5.99145">
        <ele>1300.852227</ele>
        <time>2024-07-22T09:39:15.868Z</time>
      </trkpt>
      <trkpt lat="45.5974" lon="5.99177">
        <ele>1299.293524</ele>
        <time>2024-07-22T09:39:31.685Z</time>
      </trkpt>
      <trkpt lat="45.59749" lon="5.99184">
        <ele>1298.752573</ele>
        <time>2024-07-22T09:39:37.231Z</time>
      </trkpt>
      <trkpt lat="45.59757" lon="5.99181">
        <ele>1298.271843</ele>
        <time>2024-07-22T09:39:42.161Z</time>
      </trkpt>
      <trkpt lat="45.5977" lon="5.99188">
        <ele>1297.52029</ele>
        <time>2024-07-22T09:39:49.903Z</time>
      </trkpt>
      <trkpt lat="45.59778" lon="5.99205">
        <ele>1296.726272</ele>
        <time>2024-07-22T09:39:58.350Z</time>
      </trkpt>
      <trkpt lat="45.59807" lon="5.99216">
        <ele>1295.084281</ele>
        <time>2024-07-22T09:40:16.116Z</time>
      </trkpt>
      <trkpt lat="45.5982" lon="5.9924">
        <ele>1293.943026</ele>
        <time>2024-07-22T09:40:29.039Z</time>
      </trkpt>
      <trkpt lat="45.59843" lon="5.99259">
        <ele>1292.449952</ele>
        <time>2024-07-22T09:40:46.458Z</time>
      </trkpt>
      <trkpt lat="45.59853" lon="5.99272">
        <ele>1291.745558</ele>
        <time>2024-07-22T09:40:54.796Z</time>
      </trkpt>
      <trkpt lat="45.59866" lon="5.99284">
        <ele>1290.969968</ele>
        <time>2024-07-22T09:41:04.533Z</time>
      </trkpt>
      <trkpt lat="45.59876" lon="5.99288">
        <ele>1290.406717</ele>
        <time>2024-07-22T09:41:11.430Z</time>
      </trkpt>
      <trkpt lat="45.59881" lon="5.99286">
        <ele>1290.137233</ele>
        <time>2024-07-22T09:41:14.687Z</time>
      </trkpt>
      <trkpt lat="45.59887" lon="5.993">
        <ele>1289.533793</ele>
        <time>2024-07-22T09:41:22.084Z</time>
      </trkpt>
      <trkpt lat="45.59888" lon="5.99319">
        <ele>1288.866989</ele>
        <time>2024-07-22T09:41:30.063Z</time>
      </trkpt>
      <trkpt lat="45.59892" lon="5.99335">
        <ele>1288.268786</ele>
        <time>2024-07-22T09:41:36.841Z</time>
      </trkpt>
      <trkpt lat="45.59894" lon="5.99384">
        <ele>1286.498528</ele>
        <time>2024-07-22T09:41:56.698Z</time>
      </trkpt>
      <trkpt lat="45.59895" lon="5.99404">
        <ele>1285.769565</ele>
        <time>2024-07-22T09:42:04.753Z</time>
      </trkpt>
      <trkpt lat="45.59891" lon="5.99407">
        <ele>1285.520092</ele>
        <time>2024-07-22T09:42:07.482Z</time>
      </trkpt>
      <trkpt lat="45.59868" lon="5.99408">
        <ele>1284.350722</ele>
        <time>2024-07-22T09:42:20.209Z</time>
      </trkpt>
      <trkpt lat="45.59853" lon="5.99416">
        <ele>1283.526704</ele>
        <time>2024-07-22T09:42:29.299Z</time>
      </trkpt>
      <trkpt lat="45.59832" lon="5.99436">
        <ele>1282.00486</ele>
        <time>2024-07-22T09:42:43.784Z</time>
      </trkpt>
      <trkpt lat="45.59827" lon="5.99449">
        <ele>1281.313934</ele>
        <time>2024-07-22T09:42:49.546Z</time>
      </trkpt>
      <trkpt lat="45.59823" lon="5.99465">
        <ele>1280.460493</ele>
        <time>2024-07-22T09:42:56.668Z</time>
      </trkpt>
      <trkpt lat="45.59831" lon="5.99518">
        <ele>1277.896895</ele>
        <time>2024-07-22T09:43:17.814Z</time>
      </trkpt>
      <trkpt lat="45.59824" lon="5.99537">
        <ele>1276.874283</ele>
        <time>2024-07-22T09:43:26.224Z</time>
      </trkpt>
      <trkpt lat="45.59825" lon="5.99546">
        <ele>1276.432014</ele>
        <time>2024-07-22T09:43:29.787Z</time>
      </trkpt>
      <trkpt lat="45.59832" lon="5.99559">
        <ele>1275.65749</ele>
        <time>2024-07-22T09:43:36.058Z</time>
      </trkpt>
      <trkpt lat="45.5984" lon="5.9959">
        <ele>1274.061782</ele>
        <time>2024-07-22T09:43:48.887Z</time>
      </trkpt>
      <trkpt lat="45.59837" lon="5.99597">
        <ele>1273.680111</ele>
        <time>2024-07-22T09:43:51.971Z</time>
      </trkpt>
      <trkpt lat="45.59825" lon="5.99597">
        <ele>1272.797826</ele>
        <time>2024-07-22T09:43:59.077Z</time>
      </trkpt>
      <trkpt lat="45.59829" lon="5.99609">
        <ele>1272.127739</ele>
        <time>2024-07-22T09:44:04.494Z</time>
      </trkpt>
      <trkpt lat="45.59819" lon="5.99637">
        <ele>1270.631091</ele>
        <time>2024-07-22T09:44:16.693Z</time>
      </trkpt>
      <trkpt lat="45.59816" lon="5.99655">
        <ele>1269.781897</ele>
        <time>2024-07-22T09:44:24.341Z</time>
      </trkpt>
      <trkpt lat="45.59819" lon="5.99664">
        <ele>1269.358207</ele>
        <time>2024-07-22T09:44:28.330Z</time>
      </trkpt>
      <trkpt lat="45.59818" lon="5.99679">
        <ele>1268.695041</ele>
        <time>2024-07-22T09:44:34.679Z</time>
      </trkpt>
      <trkpt lat="45.59806" lon="5.99698">
        <ele>1267.565608</ele>
        <time>2024-07-22T09:44:45.832Z</time>
      </trkpt>
      <trkpt lat="45.59791" lon="5.9971">
        <ele>1266.506264</ele>
        <time>2024-07-22T09:44:56.363Z</time>
      </trkpt>
      <trkpt lat="45.5977" lon="5.99705">
        <ele>1265.18206</ele>
        <time>2024-07-22T09:45:09.809Z</time>
      </trkpt>
      <trkpt lat="45.59756" lon="5.9971">
        <ele>1264.307217</ele>
        <time>2024-07-22T09:45:18.285Z</time>
      </trkpt>
      <trkpt lat="45.59744" lon="5.99729">
        <ele>1263.182151</ele>
        <time>2024-07-22T09:45:29.127Z</time>
      </trkpt>
      <trkpt lat="45.59737" lon="5.99751">
        <ele>1262.152231</ele>
        <time>2024-07-22T09:45:38.641Z</time>
      </trkpt>
      <trkpt lat="45.59736" lon="5.99775">
        <ele>1261.077494</ele>
        <time>2024-07-22T09:45:48.542Z</time>
      </trkpt>
      <trkpt lat="45.5973" lon="5.9979">
        <ele>1260.359403</ele>
        <time>2024-07-22T09:45:54.925Z</time>
      </trkpt>
      <trkpt lat="45.59724" lon="5.99793">
        <ele>1259.961956</ele>
        <time>2024-07-22T09:45:58.358Z</time>
      </trkpt>
      <trkpt lat="45.59717" lon="5.99803">
        <ele>1259.35215</ele>
        <time>2024-07-22T09:46:03.701Z</time>
      </trkpt>
      <trkpt lat="45.59714" lon="5.99813">
        <ele>1258.422782</ele>
        <time>2024-07-22T09:46:07.690Z</time>
      </trkpt>
      <trkpt lat="45.59719" lon="5.99828">
        <ele>1256.834219</ele>
        <time>2024-07-22T09:46:13.891Z</time>
      </trkpt>
      <trkpt lat="45.59733" lon="5.9985">
        <ele>1253.956909</ele>
        <time>2024-07-22T09:46:25.020Z</time>
      </trkpt>
      <trkpt lat="45.59733" lon="5.99865">
        <ele>1252.563909</ele>
        <time>2024-07-22T09:46:30.339Z</time>
      </trkpt>
      <trkpt lat="45.59716" lon="5.99889">
        <ele>1249.31573</ele>
        <time>2024-07-22T09:46:42.713Z</time>
      </trkpt>
      <trkpt lat="45.59686" lon="5.99916">
        <ele>1244.49222</ele>
        <time>2024-07-22T09:47:00.897Z</time>
      </trkpt>
      <trkpt lat="45.59676" lon="5.99948">
        <ele>1241.151987</ele>
        <time>2024-07-22T09:47:13.263Z</time>
      </trkpt>
      <trkpt lat="45.5967" lon="5.99978">
        <ele>1238.188417</ele>
        <time>2024-07-22T09:47:24.273Z</time>
      </trkpt>
      <trkpt lat="45.59672" lon="5.99994">
        <ele>1236.647713</ele>
        <time>2024-07-22T09:47:29.847Z</time>
      </trkpt>
      <trkpt lat="45.59675" lon="6.00003">
        <ele>1235.668777</ele>
        <time>2024-07-22T09:47:33.449Z</time>
      </trkpt>
      <trkpt lat="45.59674" lon="6.00014">
        <ele>1234.475542</ele>
        <time>2024-07-22T09:47:37.528Z</time>
      </trkpt>
      <trkpt lat="45.59654" lon="6.00042">
        <ele>1229.910147</ele>
        <time>2024-07-22T09:47:51.150Z</time>
      </trkpt>
      <trkpt lat="45.59646" lon="6.00046">
        <ele>1228.541739</ele>
        <time>2024-07-22T09:47:55.249Z</time>
      </trkpt>
      <trkpt lat="45.59642" lon="6.00067">
        <ele>1226.055279</ele>
        <time>2024-07-22T09:48:02.665Z</time>
      </trkpt>
      <trkpt lat="45.59616" lon="6.00116">
        <ele>1218.951703</ele>
        <time>2024-07-22T09:48:23.978Z</time>
      </trkpt>
      <trkpt lat="45.59618" lon="6.00159">
        <ele>1213.884844</ele>
        <time>2024-07-22T09:48:39.194Z</time>
      </trkpt>
      <trkpt lat="45.59627" lon="6.00191">
        <ele>1209.92374</ele>
        <time>2024-07-22T09:48:51.114Z</time>
      </trkpt>
      <trkpt lat="45.59625" lon="6.00201">
        <ele>1208.746699</ele>
        <time>2024-07-22T09:48:54.486Z</time>
      </trkpt>
      <trkpt lat="45.59628" lon="6.00216">
        <ele>1206.999231</ele>
        <time>2024-07-22T09:48:59.801Z</time>
      </trkpt>
      <trkpt lat="45.59631" lon="6.00218">
        <ele>1206.485326</ele>
        <time>2024-07-22T09:49:01.363Z</time>
      </trkpt>
      <trkpt lat="45.59633" lon="6.00226">
        <ele>1205.437016</ele>
        <time>2024-07-22T09:49:04.546Z</time>
      </trkpt>
      <trkpt lat="45.59638" lon="6.00243">
        <ele>1203.808459</ele>
        <time>2024-07-22T09:49:10.935Z</time>
      </trkpt>
      <trkpt lat="45.59642" lon="6.00282">
        <ele>1200.562813</ele>
        <time>2024-07-22T09:49:24.865Z</time>
      </trkpt>
      <trkpt lat="45.59638" lon="6.00298">
        <ele>1199.204297</ele>
        <time>2024-07-22T09:49:30.429Z</time>
      </trkpt>
      <trkpt lat="45.59642" lon="6.003">
        <ele>1198.723491</ele>
        <time>2024-07-22T09:49:32.645Z</time>
      </trkpt>
      <trkpt lat="45.59645" lon="6.00336">
        <ele>1195.779747</ele>
        <time>2024-07-22T09:49:45.585Z</time>
      </trkpt>
      <trkpt lat="45.59647" lon="6.00339">
        <ele>1195.495549</ele>
        <time>2024-07-22T09:49:46.794Z</time>
      </trkpt>
      <trkpt lat="45.59641" lon="6.00355">
        <ele>1193.975904</ele>
        <time>2024-07-22T09:49:53.597Z</time>
      </trkpt>
      <trkpt lat="45.59638" lon="6.00375">
        <ele>1192.32911</ele>
        <time>2024-07-22T09:50:01.305Z</time>
      </trkpt>
      <trkpt lat="45.59638" lon="6.00399">
        <ele>1190.371998</ele>
        <time>2024-07-22T09:50:10.246Z</time>
      </trkpt>
      <trkpt lat="45.5964" lon="6.00406">
        <ele>1189.711472</ele>
        <time>2024-07-22T09:50:13.373Z</time>
      </trkpt>
      <trkpt lat="45.59638" lon="6.00408">
        <ele>1189.349359</ele>
        <time>2024-07-22T09:50:15.126Z</time>
      </trkpt>
      <trkpt lat="45.59633" lon="6.00401">
        <ele>1188.545196</ele>
        <time>2024-07-22T09:50:19.098Z</time>
      </trkpt>
      <trkpt lat="45.5963" lon="6.00404">
        <ele>1188.17005</ele>
        <time>2024-07-22T09:50:21.016Z</time>
      </trkpt>
      <trkpt lat="45.59634" lon="6.00418">
        <ele>1186.972873</ele>
        <time>2024-07-22T09:50:26.547Z</time>
      </trkpt>
      <trkpt lat="45.59633" lon="6.00426">
        <ele>1186.349365</ele>
        <time>2024-07-22T09:50:29.588Z</time>
      </trkpt>
      <trkpt lat="45.59629" lon="6.00428">
        <ele>1185.775974</ele>
        <time>2024-07-22T09:50:32.515Z</time>
      </trkpt>
      <trkpt lat="45.59622" lon="6.00425">
        <ele>1184.982613</ele>
        <time>2024-07-22T09:50:36.466Z</time>
      </trkpt>
      <trkpt lat="45.59619" lon="6.00431">
        <ele>1184.414649</ele>
        <time>2024-07-22T09:50:39.488Z</time>
      </trkpt>
      <trkpt lat="45.59621" lon="6.00448">
        <ele>1183.883326</ele>
        <time>2024-07-22T09:50:46.276Z</time>
      </trkpt>
      <trkpt lat="45.59629" lon="6.00459">
        <ele>1183.575834</ele>
        <time>2024-07-22T09:50:52.711Z</time>
      </trkpt>
      <trkpt lat="45.59622" lon="6.00463">
        <ele>1183.370387</ele>
        <time>2024-07-22T09:50:57.063Z</time>
      </trkpt>
      <trkpt lat="45.59644" lon="6.0051">
        <ele>1182.286087</ele>
        <time>2024-07-22T09:51:21.065Z</time>
      </trkpt>
      <trkpt lat="45.59676" lon="6.00534">
        <ele>1181.290715</ele>
        <time>2024-07-22T09:51:43.622Z</time>
      </trkpt>
      <trkpt lat="45.59708" lon="6.00542">
        <ele>1180.378753</ele>
        <time>2024-07-22T09:52:05.374Z</time>
      </trkpt>
      <trkpt lat="45.5971" lon="6.00561">
        <ele>1180.012071</ele>
        <time>2024-07-22T09:52:15.364Z</time>
      </trkpt>
      <trkpt lat="45.59757" lon="6.0056">
        <ele>1177.381034</ele>
        <time>2024-07-22T09:52:49.988Z</time>
      </trkpt>
      <trkpt lat="45.59774" lon="6.00555">
        <ele>1175.705497</ele>
        <time>2024-07-22T09:53:02.535Z</time>
      </trkpt>
      <trkpt lat="45.59795" lon="6.00563">
        <ele>1173.510647</ele>
        <time>2024-07-22T09:53:17.070Z</time>
      </trkpt>
      <trkpt lat="45.59806" lon="6.00587">
        <ele>1171.483888</ele>
        <time>2024-07-22T09:53:29.622Z</time>
      </trkpt>
      <trkpt lat="45.59841" lon="6.00609">
        <ele>1167.623871</ele>
        <time>2024-07-22T09:53:50.398Z</time>
      </trkpt>
      <trkpt lat="45.59846" lon="6.00614">
        <ele>1166.970104</ele>
        <time>2024-07-22T09:53:53.661Z</time>
      </trkpt>
      <trkpt lat="45.59851" lon="6.00623">
        <ele>1166.147799</ele>
        <time>2024-07-22T09:53:57.625Z</time>
      </trkpt>
      <trkpt lat="45.59808" lon="6.00635">
        <ele>1161.690028</ele>
        <time>2024-07-22T09:54:06.219Z</time>
      </trkpt>
      <trkpt lat="45.59792" lon="6.00647">
        <ele>1158.478665</ele>
        <time>2024-07-22T09:54:09.621Z</time>
      </trkpt>
      <trkpt lat="45.59719" lon="6.00689">
        <ele>1140.230956</ele>
        <time>2024-07-22T09:54:24.873Z</time>
      </trkpt>
      <trkpt lat="45.59713" lon="6.00686">
        <ele>1138.749222</ele>
        <time>2024-07-22T09:54:26.121Z</time>
      </trkpt>
      <trkpt lat="45.59697" lon="6.00689">
        <ele>1135.012288</ele>
        <time>2024-07-22T09:54:29.269Z</time>
      </trkpt>
      <trkpt lat="45.59687" lon="6.00707">
        <ele>1131.298336</ele>
        <time>2024-07-22T09:54:32.383Z</time>
      </trkpt>
      <trkpt lat="45.59675" lon="6.00739">
        <ele>1125.391772</ele>
        <time>2024-07-22T09:54:37.309Z</time>
      </trkpt>
      <trkpt lat="45.59674" lon="6.00748">
        <ele>1123.7905</ele>
        <time>2024-07-22T09:54:38.645Z</time>
      </trkpt>
      <trkpt lat="45.59677" lon="6.00758">
        <ele>1122.06238</ele>
        <time>2024-07-22T09:54:40.083Z</time>
      </trkpt>
      <trkpt lat="45.59687" lon="6.00764">
        <ele>1119.514285</ele>
        <time>2024-07-22T09:54:42.215Z</time>
      </trkpt>
      <trkpt lat="45.59718" lon="6.00766">
        <ele>1111.973386</ele>
        <time>2024-07-22T09:54:48.280Z</time>
      </trkpt>
      <trkpt lat="45.59735" lon="6.0079">
        <ele>1106.337627</ele>
        <time>2024-07-22T09:54:52.785Z</time>
      </trkpt>
      <trkpt lat="45.59742" lon="6.00814">
        <ele>1101.892482</ele>
        <time>2024-07-22T09:54:56.365Z</time>
      </trkpt>
      <trkpt lat="45.59752" lon="6.00821">
        <ele>1099.324146</ele>
        <time>2024-07-22T09:54:58.426Z</time>
      </trkpt>
      <trkpt lat="45.59757" lon="6.00829">
        <ele>1097.505</ele>
        <time>2024-07-22T09:54:59.896Z</time>
      </trkpt>
      <trkpt lat="45.59731" lon="6.00844">
        <ele>1090.957061</ele>
        <time>2024-07-22T09:55:05.156Z</time>
      </trkpt>
      <trkpt lat="45.59758" lon="6.00867">
        <ele>1083.400479</ele>
        <time>2024-07-22T09:55:11.216Z</time>
      </trkpt>
      <trkpt lat="45.59779" lon="6.0087">
        <ele>1078.226715</ele>
        <time>2024-07-22T09:55:15.357Z</time>
      </trkpt>
      <trkpt lat="45.59793" lon="6.00895">
        <ele>1072.375844</ele>
        <time>2024-07-22T09:55:19.650Z</time>
      </trkpt>
      <trkpt lat="45.59792" lon="6.00908">
        <ele>1069.68533</ele>
        <time>2024-07-22T09:55:21.500Z</time>
      </trkpt>
      <trkpt lat="45.59795" lon="6.00921">
        <ele>1067.097062</ele>
        <time>2024-07-22T09:55:23.290Z</time>
      </trkpt>
      <trkpt lat="45.59799" lon="6.00927">
        <ele>1065.361694</ele>
        <time>2024-07-22T09:55:24.472Z</time>
      </trkpt>
      <trkpt lat="45.59769" lon="6.0094">
        <ele>1056.349546</ele>
        <time>2024-07-22T09:55:39.818Z</time>
      </trkpt>
      <trkpt lat="45.59748" lon="6.00937">
        <ele>1050.551158</ele>
        <time>2024-07-22T09:55:49.712Z</time>
      </trkpt>
      <trkpt lat="45.59733" lon="6.00926">
        <ele>1045.719868</ele>
        <time>2024-07-22T09:55:57.987Z</time>
      </trkpt>
      <trkpt lat="45.59733" lon="6.00911">
        <ele>1042.697874</ele>
        <time>2024-07-22T09:56:03.172Z</time>
      </trkpt>
      <trkpt lat="45.59708" lon="6.0091">
        <ele>1035.450864</ele>
        <time>2024-07-22T09:56:15.617Z</time>
      </trkpt>
      <trkpt lat="45.59696" lon="6.00906">
        <ele>1031.925271</ele>
        <time>2024-07-22T09:56:21.691Z</time>
      </trkpt>
      <trkpt lat="45.59681" lon="6.00889">
        <ele>1026.502451</ele>
        <time>2024-07-22T09:56:31.019Z</time>
      </trkpt>
      <trkpt lat="45.59605" lon="6.00848">
        <ele>1000.920916</ele>
        <time>2024-07-22T09:57:10.076Z</time>
      </trkpt>
      <trkpt lat="45.59589" lon="6.00812">
        <ele>991.434137</ele>
        <time>2024-07-22T09:57:24.449Z</time>
      </trkpt>
      <trkpt lat="45.59581" lon="6.0082">
        <ele>988.326578</ele>
        <time>2024-07-22T09:57:29.216Z</time>
      </trkpt>
      <trkpt lat="45.59577" lon="6.00853">
        <ele>980.84529</ele>
        <time>2024-07-22T09:57:40.564Z</time>
      </trkpt>
      <trkpt lat="45.59567" lon="6.00828">
        <ele>974.331081</ele>
        <time>2024-07-22T09:57:50.539Z</time>
      </trkpt>
      <trkpt lat="45.59563" lon="6.00834">
        <ele>972.542495</ele>
        <time>2024-07-22T09:57:53.261Z</time>
      </trkpt>
      <trkpt lat="45.59559" lon="6.00878">
        <ele>962.584529</ele>
        <time>2024-07-22T09:58:08.293Z</time>
      </trkpt>
      <trkpt lat="45.59532" lon="6.00836">
        <ele>949.550245</ele>
        <time>2024-07-22T09:58:27.767Z</time>
      </trkpt>
      <trkpt lat="45.59523" lon="6.00858">
        <ele>943.534541</ele>
        <time>2024-07-22T09:58:36.751Z</time>
      </trkpt>
      <trkpt lat="45.59515" lon="6.00862">
        <ele>940.880813</ele>
        <time>2024-07-22T09:58:40.716Z</time>
      </trkpt>
      <trkpt lat="45.59467" lon="6.00852">
        <ele>924.878865</ele>
        <time>2024-07-22T09:59:04.582Z</time>
      </trkpt>
      <trkpt lat="45.59461" lon="6.00856">
        <ele>922.865097</ele>
        <time>2024-07-22T09:59:07.564Z</time>
      </trkpt>
      <trkpt lat="45.59446" lon="6.00856">
        <ele>917.717973</ele>
        <time>2024-07-22T09:59:15.258Z</time>
      </trkpt>
      <trkpt lat="45.5945" lon="6.00816">
        <ele>908.421283</ele>
        <time>2024-07-22T09:59:29.178Z</time>
      </trkpt>
      <trkpt lat="45.59455" lon="6.00799">
        <ele>904.702391</ele>
        <time>2024-07-22T09:59:35.126Z</time>
      </trkpt>
      <trkpt lat="45.59453" lon="6.00793">
        <ele>903.251</ele>
        <time>2024-07-22T09:59:37.445Z</time>
      </trkpt>
      <trkpt lat="45.5944" lon="6.00802">
        <ele>898.744978</ele>
        <time>2024-07-22T09:59:44.673Z</time>
      </trkpt>
      <trkpt lat="45.59414" lon="6.00829">
        <ele>889.128415</ele>
        <time>2024-07-22T09:59:59.997Z</time>
      </trkpt>
      <trkpt lat="45.59374" lon="6.00879">
        <ele>873.032296</ele>
        <time>2024-07-22T10:00:25.586Z</time>
      </trkpt>
      <trkpt lat="45.59361" lon="6.00887">
        <ele>868.719534</ele>
        <time>2024-07-22T10:00:32.447Z</time>
      </trkpt>
      <trkpt lat="45.59372" lon="6.0081">
        <ele>851.993364</ele>
        <time>2024-07-22T10:00:58.859Z</time>
      </trkpt>
      <trkpt lat="45.5937" lon="6.0078">
        <ele>845.167077</ele>
        <time>2024-07-22T10:01:09.096Z</time>
      </trkpt>
      <trkpt lat="45.59371" lon="6.00761">
        <ele>840.691273</ele>
        <time>2024-07-22T10:01:15.809Z</time>
      </trkpt>
      <trkpt lat="45.59363" lon="6.00747">
        <ele>836.79653</ele>
        <time>2024-07-22T10:01:21.642Z</time>
      </trkpt>
      <trkpt lat="45.59363" lon="6.00747">
        <ele>836.79653</ele>
        <time>2024-07-22T10:01:21.652Z</time>
      </trkpt>
      <trkpt lat="45.59365" lon="6.00711">
        <ele>828.591014</ele>
        <time>2024-07-22T10:01:33.934Z</time>
      </trkpt>
      <trkpt lat="45.59356" lon="6.00703">
        <ele>824.909977</ele>
        <time>2024-07-22T10:01:39.461Z</time>
      </trkpt>
      <trkpt lat="45.59349" lon="6.00684">
        <ele>819.947931</ele>
        <time>2024-07-22T10:01:46.924Z</time>
      </trkpt>
      <trkpt lat="45.59278" lon="6.0066">
        <ele>796.440533</ele>
        <time>2024-07-22T10:02:22.162Z</time>
      </trkpt>
      <trkpt lat="45.59243" lon="6.0062">
        <ele>782.148378</ele>
        <time>2024-07-22T10:02:44.058Z</time>
      </trkpt>
      <trkpt lat="45.59231" lon="6.00599">
        <ele>776.184094</ele>
        <time>2024-07-22T10:02:53.223Z</time>
      </trkpt>
      <trkpt lat="45.59194" lon="6.00563">
        <ele>761.702345</ele>
        <time>2024-07-22T10:03:15.316Z</time>
      </trkpt>
      <trkpt lat="45.59147" lon="6.00514">
        <ele>743.240125</ele>
        <time>2024-07-22T10:03:43.287Z</time>
      </trkpt>
      <trkpt lat="45.59139" lon="6.00538">
        <ele>737.739589</ele>
        <time>2024-07-22T10:03:46.890Z</time>
      </trkpt>
      <trkpt lat="45.59137" lon="6.00565">
        <ele>733.229079</ele>
        <time>2024-07-22T10:03:50.632Z</time>
      </trkpt>
      <trkpt lat="45.59126" lon="6.0057">
        <ele>730.529303</ele>
        <time>2024-07-22T10:03:52.866Z</time>
      </trkpt>
      <trkpt lat="45.59103" lon="6.00635">
        <ele>718.598979</ele>
        <time>2024-07-22T10:04:02.701Z</time>
      </trkpt>
      <trkpt lat="45.59105" lon="6.00656">
        <ele>715.136092</ele>
        <time>2024-07-22T10:04:05.556Z</time>
      </trkpt>
      <trkpt lat="45.5909" lon="6.00682">
        <ele>709.596265</ele>
        <time>2024-07-22T10:04:10.107Z</time>
      </trkpt>
      <trkpt lat="45.59091" lon="6.00696">
        <ele>707.253441</ele>
        <time>2024-07-22T10:04:12.039Z</time>
      </trkpt>
      <trkpt lat="45.59085" lon="6.00714">
        <ele>704.010589</ele>
        <time>2024-07-22T10:04:14.707Z</time>
      </trkpt>
      <trkpt lat="45.59073" lon="6.00713">
        <ele>701.278297</ele>
        <time>2024-07-22T10:04:16.980Z</time>
      </trkpt>
      <trkpt lat="45.59068" lon="6.00706">
        <ele>699.630066</ele>
        <time>2024-07-22T10:04:18.363Z</time>
      </trkpt>
      <trkpt lat="45.59051" lon="6.00697">
        <ele>695.791878</ele>
        <time>2024-07-22T10:04:21.855Z</time>
      </trkpt>
      <trkpt lat="45.5904" lon="6.00678">
        <ele>693.024801</ele>
        <time>2024-07-22T10:04:25.302Z</time>
      </trkpt>
      <trkpt lat="45.59038" lon="6.00679">
        <ele>692.594644</ele>
        <time>2024-07-22T10:04:25.845Z</time>
      </trkpt>
      <trkpt lat="45.59036" lon="6.00685">
        <ele>691.905693</ele>
        <time>2024-07-22T10:04:26.692Z</time>
      </trkpt>
      <trkpt lat="45.59033" lon="6.0072">
        <ele>687.965451</ele>
        <time>2024-07-22T10:04:31.634Z</time>
      </trkpt>
      <trkpt lat="45.59026" lon="6.00726">
        <ele>686.697729</ele>
        <time>2024-07-22T10:04:33.220Z</time>
      </trkpt>
      <trkpt lat="45.59021" lon="6.00735">
        <ele>685.378662</ele>
        <time>2024-07-22T10:04:34.865Z</time>
      </trkpt>
      <trkpt lat="45.59013" lon="6.00744">
        <ele>683.725643</ele>
        <time>2024-07-22T10:04:36.041Z</time>
      </trkpt>
      <trkpt lat="45.59013" lon="6.00753">
        <ele>682.718322</ele>
        <time>2024-07-22T10:04:36.756Z</time>
      </trkpt>
      <trkpt lat="45.59013" lon="6.00763">
        <ele>681.666936</ele>
        <time>2024-07-22T10:04:37.498Z</time>
      </trkpt>
      <trkpt lat="45.59035" lon="6.00842">
        <ele>672.119356</ele>
        <time>2024-07-22T10:04:44.297Z</time>
      </trkpt>
      <trkpt lat="45.58977" lon="6.00807">
        <ele>662.654851</ele>
        <time>2024-07-22T10:04:52.042Z</time>
      </trkpt>
      <trkpt lat="45.58931" lon="6.00772">
        <ele>655.296944</ele>
        <time>2024-07-22T10:04:58.391Z</time>
      </trkpt>
      <trkpt lat="45.58926" lon="6.00765">
        <ele>654.331549</ele>
        <time>2024-07-22T10:04:59.228Z</time>
      </trkpt>
      <trkpt lat="45.58897" lon="6.00725">
        <ele>648.655393</ele>
        <time>2024-07-22T10:05:04.094Z</time>
      </trkpt>
      <trkpt lat="45.58839" lon="6.00625">
        <ele>635.572103</ele>
        <time>2024-07-22T10:05:15.152Z</time>
      </trkpt>
      <trkpt lat="45.58813" lon="6.00591">
        <ele>630.444979</ele>
        <time>2024-07-22T10:05:19.437Z</time>
      </trkpt>
      <trkpt lat="45.58809" lon="6.00591">
        <ele>629.799927</ele>
        <time>2024-07-22T10:05:19.977Z</time>
      </trkpt>
      <trkpt lat="45.58795" lon="6.00553">
        <ele>625.43383</ele>
        <time>2024-07-22T10:05:23.395Z</time>
      </trkpt>
      <trkpt lat="45.58794" lon="6.00547">
        <ele>624.777556</ele>
        <time>2024-07-22T10:05:23.915Z</time>
      </trkpt>
      <trkpt lat="45.58788" lon="6.00546">
        <ele>624.006573</ele>
        <time>2024-07-22T10:05:24.968Z</time>
      </trkpt>
      <trkpt lat="45.58761" lon="6.00503">
        <ele>618.123499</ele>
        <time>2024-07-22T10:05:33.132Z</time>
      </trkpt>
      <trkpt lat="45.58746" lon="6.00461">
        <ele>613.488081</ele>
        <time>2024-07-22T10:05:39.883Z</time>
      </trkpt>
      <trkpt lat="45.58744" lon="6.00443">
        <ele>611.756213</ele>
        <time>2024-07-22T10:05:42.504Z</time>
      </trkpt>
      <trkpt lat="45.58739" lon="6.00431">
        <ele>610.445199</ele>
        <time>2024-07-22T10:05:44.509Z</time>
      </trkpt>
      <trkpt lat="45.58727" lon="6.00426">
        <ele>608.781037</ele>
        <time>2024-07-22T10:05:47.059Z</time>
      </trkpt>
      <trkpt lat="45.58705" lon="6.00427">
        <ele>605.895223</ele>
        <time>2024-07-22T10:05:51.492Z</time>
      </trkpt>
      <trkpt lat="45.58668" lon="6.00436">
        <ele>600.908114</ele>
        <time>2024-07-22T10:05:59.161Z</time>
      </trkpt>
      <trkpt lat="45.58638" lon="6.00439">
        <ele>596.856443</ele>
        <time>2024-07-22T10:06:02.856Z</time>
      </trkpt>
      <trkpt lat="45.58616" lon="6.00447">
        <ele>593.783426</ele>
        <time>2024-07-22T10:06:05.678Z</time>
      </trkpt>
      <trkpt lat="45.58598" lon="6.00454">
        <ele>591.24995</ele>
        <time>2024-07-22T10:06:08.040Z</time>
      </trkpt>
      <trkpt lat="45.58596" lon="6.0044">
        <ele>589.989695</ele>
        <time>2024-07-22T10:06:09.185Z</time>
      </trkpt>
      <trkpt lat="45.58599" lon="6.00389">
        <ele>585.381322</ele>
        <time>2024-07-22T10:06:13.339Z</time>
      </trkpt>
      <trkpt lat="45.58591" lon="6.00367">
        <ele>583.155173</ele>
        <time>2024-07-22T10:06:16.919Z</time>
      </trkpt>
      <trkpt lat="45.58582" lon="6.0037">
        <ele>581.944246</ele>
        <time>2024-07-22T10:06:18.077Z</time>
      </trkpt>
      <trkpt lat="45.5855" lon="6.00367">
        <ele>577.86732</ele>
        <time>2024-07-22T10:06:21.969Z</time>
      </trkpt>
      <trkpt lat="45.58523" lon="6.00361">
        <ele>574.315833</ele>
        <time>2024-07-22T10:06:25.355Z</time>
      </trkpt>
      <trkpt lat="45.58514" lon="6.00353">
        <ele>572.890175</ele>
        <time>2024-07-22T10:06:26.703Z</time>
      </trkpt>
      <trkpt lat="45.58516" lon="6.00346">
        <ele>572.212513</ele>
        <time>2024-07-22T10:06:27.353Z</time>
      </trkpt>
      <trkpt lat="45.5849" lon="6.00338">
        <ele>568.842837</ele>
        <time>2024-07-22T10:06:32.670Z</time>
      </trkpt>
      <trkpt lat="45.58469" lon="6.00337">
        <ele>565.223846</ele>
        <time>2024-07-22T10:06:36.967Z</time>
      </trkpt>
      <trkpt lat="45.58433" lon="6.0038">
        <ele>557.127804</ele>
        <time>2024-07-22T10:06:46.253Z</time>
      </trkpt>
      <trkpt lat="45.5841" lon="6.00413">
        <ele>551.508829</ele>
        <time>2024-07-22T10:06:52.684Z</time>
      </trkpt>
      <trkpt lat="45.58405" lon="6.00415">
        <ele>550.484771</ele>
        <time>2024-07-22T10:06:53.848Z</time>
      </trkpt>
      <trkpt lat="45.58399" lon="6.00413">
        <ele>549.510851</ele>
        <time>2024-07-22T10:06:54.955Z</time>
      </trkpt>
      <trkpt lat="45.58388" lon="6.00395">
        <ele>546.639853</ele>
        <time>2024-07-22T10:06:58.248Z</time>
      </trkpt>
      <trkpt lat="45.58382" lon="6.00392">
        <ele>545.504519</ele>
        <time>2024-07-22T10:06:59.524Z</time>
      </trkpt>
      <trkpt lat="45.58377" lon="6.00399">
        <ele>544.256104</ele>
        <time>2024-07-22T10:07:00.958Z</time>
      </trkpt>
      <trkpt lat="45.58377" lon="6.00413">
        <ele>542.483772</ele>
        <time>2024-07-22T10:07:02.964Z</time>
      </trkpt>
      <trkpt lat="45.5838" lon="6.00422">
        <ele>541.247557</ele>
        <time>2024-07-22T10:07:04.389Z</time>
      </trkpt>
      <trkpt lat="45.5837" lon="6.00421">
        <ele>539.413345</ele>
        <time>2024-07-22T10:07:09.485Z</time>
      </trkpt>
      <trkpt lat="45.58353" lon="6.00393">
        <ele>534.901412</ele>
        <time>2024-07-22T10:07:21.890Z</time>
      </trkpt>
      <trkpt lat="45.5835" lon="6.004">
        <ele>533.912307</ele>
        <time>2024-07-22T10:07:24.529Z</time>
      </trkpt>
      <trkpt lat="45.58352" lon="6.00422">
        <ele>531.194169</ele>
        <time>2024-07-22T10:07:31.834Z</time>
      </trkpt>
      <trkpt lat="45.58341" lon="6.00411">
        <ele>528.926048</ele>
        <time>2024-07-22T10:07:38.034Z</time>
      </trkpt>
      <trkpt lat="45.58302" lon="6.00303">
        <ele>513.652539</ele>
        <time>2024-07-22T10:08:19.596Z</time>
      </trkpt>
      <trkpt lat="45.58283" lon="6.00244">
        <ele>505.421681</ele>
        <time>2024-07-22T10:08:42.580Z</time>
      </trkpt>
      <trkpt lat="45.58263" lon="6.00151">
        <ele>496.925518</ele>
        <time>2024-07-22T10:09:17.318Z</time>
      </trkpt>
      <trkpt lat="45.58264" lon="6.0014">
        <ele>495.968454</ele>
        <time>2024-07-22T10:09:21.240Z</time>
      </trkpt>
      <trkpt lat="45.58276" lon="6.00122">
        <ele>493.851951</ele>
        <time>2024-07-22T10:09:30.058Z</time>
      </trkpt>
      <trkpt lat="45.58276" lon="6.00116">
        <ele>493.348691</ele>
        <time>2024-07-22T10:09:32.145Z</time>
      </trkpt>
      <trkpt lat="45.58272" lon="6.00108">
        <ele>492.493237</ele>
        <time>2024-07-22T10:09:35.620Z</time>
      </trkpt>
      <trkpt lat="45.58272" lon="6.00097">
        <ele>491.530075</ele>
        <time>2024-07-22T10:09:39.605Z</time>
      </trkpt>
      <trkpt lat="45.5828" lon="6.0008">
        <ele>489.752758</ele>
        <time>2024-07-22T10:09:47.084Z</time>
      </trkpt>
      <trkpt lat="45.58278" lon="6.00072">
        <ele>489.007754</ele>
        <time>2024-07-22T10:09:50.222Z</time>
      </trkpt>
      <trkpt lat="45.58279" lon="6.0004">
        <ele>486.271318</ele>
        <time>2024-07-22T10:10:01.967Z</time>
      </trkpt>
      <trkpt lat="45.58269" lon="6.0002">
        <ele>484.110699</ele>
        <time>2024-07-22T10:10:11.384Z</time>
      </trkpt>
      <trkpt lat="45.58262" lon="5.99978">
        <ele>481.58489</ele>
        <time>2024-07-22T10:10:28.145Z</time>
      </trkpt>
      <trkpt lat="45.5825" lon="5.99957">
        <ele>480.344498</ele>
        <time>2024-07-22T10:10:38.899Z</time>
      </trkpt>
      <trkpt lat="45.58247" lon="5.99918">
        <ele>478.552672</ele>
        <time>2024-07-22T10:10:55.003Z</time>
      </trkpt>
      <trkpt lat="45.58236" lon="5.99888">
        <ele>476.989398</ele>
        <time>2024-07-22T10:11:08.591Z</time>
      </trkpt>
      <trkpt lat="45.58231" lon="5.99882">
        <ele>476.552909</ele>
        <time>2024-07-22T10:11:12.537Z</time>
      </trkpt>
      <trkpt lat="45.58231" lon="5.99873">
        <ele>476.135916</ele>
        <time>2024-07-22T10:11:16.371Z</time>
      </trkpt>
      <trkpt lat="45.58239" lon="5.99846">
        <ele>474.798301</ele>
        <time>2024-07-22T10:11:27.860Z</time>
      </trkpt>
      <trkpt lat="45.58239" lon="5.99815">
        <ele>473.415219</ele>
        <time>2024-07-22T10:11:40.327Z</time>
      </trkpt>
      <trkpt lat="45.58248" lon="5.99735">
        <ele>470.269601</ele>
        <time>2024-07-22T10:12:13.518Z</time>
      </trkpt>
      <trkpt lat="45.58258" lon="5.99721">
        <ele>469.710153</ele>
        <time>2024-07-22T10:12:22.301Z</time>
      </trkpt>
      <trkpt lat="45.58255" lon="5.9971">
        <ele>469.371366</ele>
        <time>2024-07-22T10:12:27.135Z</time>
      </trkpt>
      <trkpt lat="45.58253" lon="5.99703">
        <ele>469.154768</ele>
        <time>2024-07-22T10:12:30.203Z</time>
      </trkpt>
      <trkpt lat="45.5826" lon="5.9968">
        <ele>468.455428</ele>
        <time>2024-07-22T10:12:41.401Z</time>
      </trkpt>
      <trkpt lat="45.58255" lon="5.99651">
        <ele>467.593147</ele>
        <time>2024-07-22T10:12:54.242Z</time>
      </trkpt>
      <trkpt lat="45.58264" lon="5.9962">
        <ele>466.629061</ele>
        <time>2024-07-22T10:13:09.152Z</time>
      </trkpt>
      <trkpt lat="45.58255" lon="5.99618">
        <ele>466.259777</ele>
        <time>2024-07-22T10:13:14.380Z</time>
      </trkpt>
      <trkpt lat="45.5825" lon="5.99622">
        <ele>466.024722</ele>
        <time>2024-07-22T10:13:17.930Z</time>
      </trkpt>
      <trkpt lat="45.58263" lon="5.99546">
        <ele>463.72565</ele>
        <time>2024-07-22T10:13:51.523Z</time>
      </trkpt>
      <trkpt lat="45.5826" lon="5.99528">
        <ele>462.898716</ele>
        <time>2024-07-22T10:13:58.707Z</time>
      </trkpt>
      <trkpt lat="45.58261" lon="5.99509">
        <ele>462.00915</ele>
        <time>2024-07-22T10:14:07.108Z</time>
      </trkpt>
      <trkpt lat="45.58246" lon="5.9952">
        <ele>460.916723</ele>
        <time>2024-07-22T10:14:17.588Z</time>
      </trkpt>
      <trkpt lat="45.5825" lon="5.99486">
        <ele>459.346187</ele>
        <time>2024-07-22T10:14:32.054Z</time>
      </trkpt>
      <trkpt lat="45.58254" lon="5.99477">
        <ele>458.839628</ele>
        <time>2024-07-22T10:14:36.652Z</time>
      </trkpt>
      <trkpt lat="45.58255" lon="5.99466">
        <ele>458.327977</ele>
        <time>2024-07-22T10:14:41.096Z</time>
      </trkpt>
      <trkpt lat="45.58239" lon="5.99454">
        <ele>457.172974</ele>
        <time>2024-07-22T10:14:51.592Z</time>
      </trkpt>
      <trkpt lat="45.58218" lon="5.99412">
        <ele>454.788634</ele>
        <time>2024-07-22T10:15:11.858Z</time>
      </trkpt>
      <trkpt lat="45.58213" lon="5.99371">
        <ele>452.886421</ele>
        <time>2024-07-22T10:15:27.373Z</time>
      </trkpt>
      <trkpt lat="45.58216" lon="5.99355">
        <ele>452.107651</ele>
        <time>2024-07-22T10:15:33.856Z</time>
      </trkpt>
      <trkpt lat="45.58221" lon="5.99353">
        <ele>451.498069</ele>
        <time>2024-07-22T10:15:36.270Z</time>
      </trkpt>
      <trkpt lat="45.58221" lon="5.99349">
        <ele>451.096488</ele>
        <time>2024-07-22T10:15:37.775Z</time>
      </trkpt>
      <trkpt lat="45.58198" lon="5.99324">
        <ele>447.134313</ele>
        <time>2024-07-22T10:15:52.549Z</time>
      </trkpt>
      <trkpt lat="45.58185" lon="5.99313">
        <ele>444.932938</ele>
        <time>2024-07-22T10:16:00.555Z</time>
      </trkpt>
      <trkpt lat="45.58176" lon="5.99294">
        <ele>442.702906</ele>
        <time>2024-07-22T10:16:08.961Z</time>
      </trkpt>
      <trkpt lat="45.58175" lon="5.9926">
        <ele>439.376535</ele>
        <time>2024-07-22T10:16:21.104Z</time>
      </trkpt>
      <trkpt lat="45.58155" lon="5.99245">
        <ele>436.246208</ele>
        <time>2024-07-22T10:16:32.607Z</time>
      </trkpt>
      <trkpt lat="45.58136" lon="5.99234">
        <ele>433.303914</ele>
        <time>2024-07-22T10:16:42.966Z</time>
      </trkpt>
      <trkpt lat="45.58132" lon="5.99227">
        <ele>432.396956</ele>
        <time>2024-07-22T10:16:46.204Z</time>
      </trkpt>
      <trkpt lat="45.58129" lon="5.99185">
        <ele>428.284243</ele>
        <time>2024-07-22T10:17:00.758Z</time>
      </trkpt>
      <trkpt lat="45.58131" lon="5.99171">
        <ele>426.901064</ele>
        <time>2024-07-22T10:17:05.673Z</time>
      </trkpt>
      <trkpt lat="45.5812" lon="5.99142">
        <ele>423.779225</ele>
        <time>2024-07-22T10:17:17.326Z</time>
      </trkpt>
      <trkpt lat="45.58121" lon="5.99119">
        <ele>421.626957</ele>
        <time>2024-07-22T10:17:25.414Z</time>
      </trkpt>
      <trkpt lat="45.58113" lon="5.99105">
        <ele>419.971062</ele>
        <time>2024-07-22T10:17:31.660Z</time>
      </trkpt>
      <trkpt lat="45.58113" lon="5.99093">
        <ele>418.774732</ele>
        <time>2024-07-22T10:17:36.195Z</time>
      </trkpt>
      <trkpt lat="45.58105" lon="5.9909">
        <ele>417.645651</ele>
        <time>2024-07-22T10:17:40.467Z</time>
      </trkpt>
      <trkpt lat="45.581" lon="5.99099">
        <ele>416.643627</ele>
        <time>2024-07-22T10:17:44.263Z</time>
      </trkpt>
      <trkpt lat="45.58082" lon="5.99092">
        <ele>414.136034</ele>
        <time>2024-07-22T10:17:53.904Z</time>
      </trkpt>
      <trkpt lat="45.58078" lon="5.99093">
        <ele>413.495905</ele>
        <time>2024-07-22T10:17:56.344Z</time>
      </trkpt>
      <trkpt lat="45.58076" lon="5.99082">
        <ele>412.426441</ele>
        <time>2024-07-22T10:18:00.518Z</time>
      </trkpt>
      <trkpt lat="45.58077" lon="5.99071">
        <ele>411.410634</ele>
        <time>2024-07-22T10:18:04.414Z</time>
      </trkpt>
      <trkpt lat="45.58084" lon="5.99049">
        <ele>409.115933</ele>
        <time>2024-07-22T10:18:13.272Z</time>
      </trkpt>
      <trkpt lat="45.58099" lon="5.99026">
        <ele>406.250459</ele>
        <time>2024-07-22T10:18:24.396Z</time>
      </trkpt>
      <trkpt lat="45.58105" lon="5.98992">
        <ele>402.978021</ele>
        <time>2024-07-22T10:18:37.383Z</time>
      </trkpt>
      <trkpt lat="45.58126" lon="5.98931">
        <ele>401.619212</ele>
        <time>2024-07-22T10:19:03.498Z</time>
      </trkpt>
      <trkpt lat="45.58117" lon="5.98895">
        <ele>400.842818</ele>
        <time>2024-07-22T10:19:23.392Z</time>
      </trkpt>
      <trkpt lat="45.5812" lon="5.98875">
        <ele>400.429232</ele>
        <time>2024-07-22T10:19:37.370Z</time>
      </trkpt>
      <trkpt lat="45.58114" lon="5.98846">
        <ele>399.820518</ele>
        <time>2024-07-22T10:19:56.995Z</time>
      </trkpt>
      <trkpt lat="45.58118" lon="5.98817">
        <ele>399.217797</ele>
        <time>2024-07-22T10:20:12.937Z</time>
      </trkpt>
      <trkpt lat="45.58125" lon="5.98802">
        <ele>398.86513</ele>
        <time>2024-07-22T10:20:20.713Z</time>
      </trkpt>
      <trkpt lat="45.5814" lon="5.9878">
        <ele>398.237291</ele>
        <time>2024-07-22T10:20:33.787Z</time>
      </trkpt>
      <trkpt lat="45.58162" lon="5.9877">
        <ele>397.33141</ele>
        <time>2024-07-22T10:20:46.918Z</time>
      </trkpt>
      <trkpt lat="45.5817" lon="5.98775">
        <ele>396.808531</ele>
        <time>2024-07-22T10:20:52.572Z</time>
      </trkpt>
      <trkpt lat="45.58175" lon="5.98782">
        <ele>396.37576</ele>
        <time>2024-07-22T10:20:59.097Z</time>
      </trkpt>
      <trkpt lat="45.58178" lon="5.98778">
        <ele>396.12058</ele>
        <time>2024-07-22T10:21:02.126Z</time>
      </trkpt>
      <trkpt lat="45.58184" lon="5.98776">
        <ele>395.801398</ele>
        <time>2024-07-22T10:21:05.066Z</time>
      </trkpt>
      <trkpt lat="45.58187" lon="5.98787">
        <ele>395.30186</ele>
        <time>2024-07-22T10:21:09.542Z</time>
      </trkpt>
      <trkpt lat="45.58208" lon="5.98793">
        <ele>394.04048</ele>
        <time>2024-07-22T10:21:25.865Z</time>
      </trkpt>
      <trkpt lat="45.58195" lon="5.98776">
        <ele>393.0332</ele>
        <time>2024-07-22T10:21:35.295Z</time>
      </trkpt>
      <trkpt lat="45.58184" lon="5.9874">
        <ele>391.379975</ele>
        <time>2024-07-22T10:21:52.670Z</time>
      </trkpt>
      <trkpt lat="45.58173" lon="5.98728">
        <ele>390.568498</ele>
        <time>2024-07-22T10:22:00.312Z</time>
      </trkpt>
      <trkpt lat="45.58179" lon="5.98691">
        <ele>389.000767</ele>
        <time>2024-07-22T10:22:15.391Z</time>
      </trkpt>
      <trkpt lat="45.58178" lon="5.98651">
        <ele>387.322383</ele>
        <time>2024-07-22T10:22:31.650Z</time>
      </trkpt>
      <trkpt lat="45.5818" lon="5.98641">
        <ele>386.659867</ele>
        <time>2024-07-22T10:22:35.163Z</time>
      </trkpt>
      <trkpt lat="45.58184" lon="5.98634">
        <ele>385.954593</ele>
        <time>2024-07-22T10:22:38.245Z</time>
      </trkpt>
      <trkpt lat="45.58214" lon="5.9863">
        <ele>382.421211</ele>
        <time>2024-07-22T10:22:53.360Z</time>
      </trkpt>
      <trkpt lat="45.58208" lon="5.98623">
        <ele>381.486381</ele>
        <time>2024-07-22T10:22:57.364Z</time>
      </trkpt>
      <trkpt lat="45.58198" lon="5.9859">
        <ele>378.612291</ele>
        <time>2024-07-22T10:23:09.430Z</time>
      </trkpt>
      <trkpt lat="45.58198" lon="5.9858">
        <ele>377.81011</ele>
        <time>2024-07-22T10:23:12.893Z</time>
      </trkpt>
      <trkpt lat="45.58189" lon="5.98586">
        <ele>376.67834</ele>
        <time>2024-07-22T10:23:17.956Z</time>
      </trkpt>
      <trkpt lat="45.58193" lon="5.9857">
        <ele>375.284255</ele>
        <time>2024-07-22T10:23:24.022Z</time>
      </trkpt>
      <trkpt lat="45.58191" lon="5.98564">
        <ele>374.67492</ele>
        <time>2024-07-22T10:23:26.656Z</time>
      </trkpt>
      <trkpt lat="45.5818" lon="5.98577">
        <ele>373.019031</ele>
        <time>2024-07-22T10:23:34.257Z</time>
      </trkpt>
      <trkpt lat="45.58179" lon="5.98575">
        <ele>372.803992</ele>
        <time>2024-07-22T10:23:35.274Z</time>
      </trkpt>
      <trkpt lat="45.58188" lon="5.98556">
        <ele>370.996894</ele>
        <time>2024-07-22T10:23:43.585Z</time>
      </trkpt>
      <trkpt lat="45.58187" lon="5.9855">
        <ele>370.432704</ele>
        <time>2024-07-22T10:23:46.093Z</time>
      </trkpt>
      <trkpt lat="45.58171" lon="5.98568">
        <ele>368.002303</ele>
        <time>2024-07-22T10:23:57.684Z</time>
      </trkpt>
      <trkpt lat="45.58157" lon="5.98563">
        <ele>366.370744</ele>
        <time>2024-07-22T10:24:05.121Z</time>
      </trkpt>
      <trkpt lat="45.58141" lon="5.98565">
        <ele>365.295629</ele>
        <time>2024-07-22T10:24:14.058Z</time>
      </trkpt>
      <trkpt lat="45.58139" lon="5.98561">
        <ele>365.122811</ele>
        <time>2024-07-22T10:24:15.804Z</time>
      </trkpt>
      <trkpt lat="45.58141" lon="5.98552">
        <ele>364.746494</ele>
        <time>2024-07-22T10:24:19.334Z</time>
      </trkpt>
      <trkpt lat="45.58153" lon="5.9852">
        <ele>363.263831</ele>
        <time>2024-07-22T10:24:51.078Z</time>
      </trkpt>
      <trkpt lat="45.58181" lon="5.98486">
        <ele>361.142055</ele>
        <time>2024-07-22T10:24:59.744Z</time>
      </trkpt>
      <trkpt lat="45.58183" lon="5.98483">
        <ele>360.987207</ele>
        <time>2024-07-22T10:25:00.738Z</time>
      </trkpt>
      <trkpt lat="45.58201" lon="5.98443">
        <ele>359.034879</ele>
        <time>2024-07-22T10:25:09.005Z</time>
      </trkpt>
      <trkpt lat="45.58204" lon="5.98419">
        <ele>358.036947</ele>
        <time>2024-07-22T10:25:13.368Z</time>
      </trkpt>
      <trkpt lat="45.58204" lon="5.98396">
        <ele>357.130956</ele>
        <time>2024-07-22T10:25:17.330Z</time>
      </trkpt>
      <trkpt lat="45.58201" lon="5.98378">
        <ele>356.366066</ele>
        <time>2024-07-22T10:25:21.016Z</time>
      </trkpt>
      <trkpt lat="45.58192" lon="5.98361">
        <ele>355.592762</ele>
        <time>2024-07-22T10:25:24.450Z</time>
      </trkpt>
      <trkpt lat="45.58165" lon="5.98329">
        <ele>354.465069</ele>
        <time>2024-07-22T10:25:33.277Z</time>
      </trkpt>
      <trkpt lat="45.5816" lon="5.98306">
        <ele>353.931904</ele>
        <time>2024-07-22T10:25:43.756Z</time>
      </trkpt>
      <trkpt lat="45.58161" lon="5.98291">
        <ele>353.581107</ele>
        <time>2024-07-22T10:25:50.773Z</time>
      </trkpt>
      <trkpt lat="45.58166" lon="5.98276">
        <ele>353.216893</ele>
        <time>2024-07-22T10:25:57.825Z</time>
      </trkpt>
      <trkpt lat="45.58183" lon="5.98245">
        <ele>352.326415</ele>
        <time>2024-07-22T10:26:14.865Z</time>
      </trkpt>
      <trkpt lat="45.58186" lon="5.98231">
        <ele>352.003132</ele>
        <time>2024-07-22T10:26:20.857Z</time>
      </trkpt>
      <trkpt lat="45.58202" lon="5.98199">
        <ele>351.112736</ele>
        <time>2024-07-22T10:26:27.797Z</time>
      </trkpt>
      <trkpt lat="45.5821" lon="5.98177">
        <ele>350.549123</ele>
        <time>2024-07-22T10:26:32.242Z</time>
      </trkpt>
      <trkpt lat="45.58214" lon="5.98149">
        <ele>349.92132</ele>
        <time>2024-07-22T10:26:37.267Z</time>
      </trkpt>
      <trkpt lat="45.58214" lon="5.98131">
        <ele>349.761701</ele>
        <time>2024-07-22T10:26:40.841Z</time>
      </trkpt>
      <trkpt lat="45.58212" lon="5.98113">
        <ele>349.612849</ele>
        <time>2024-07-22T10:26:44.390Z</time>
      </trkpt>
      <trkpt lat="45.58202" lon="5.98097">
        <ele>349.430758</ele>
        <time>2024-07-22T10:26:49.096Z</time>
      </trkpt>
      <trkpt lat="45.58165" lon="5.98057">
        <ele>348.883826</ele>
        <time>2024-07-22T10:27:06.570Z</time>
      </trkpt>
      <trkpt lat="45.5816" lon="5.97982">
        <ele>348.261447</ele>
        <time>2024-07-22T10:27:23.744Z</time>
      </trkpt>
      <trkpt lat="45.5815" lon="5.97964">
        <ele>348.0733</ele>
        <time>2024-07-22T10:27:26.022Z</time>
      </trkpt>
      <trkpt lat="45.58148" lon="5.97929">
        <ele>347.782173</ele>
        <time>2024-07-22T10:27:29.626Z</time>
      </trkpt>
      <trkpt lat="45.58137" lon="5.97903">
        <ele>346.973204</ele>
        <time>2024-07-22T10:27:32.816Z</time>
      </trkpt>
      <trkpt lat="45.58136" lon="5.97873">
        <ele>346.179692</ele>
        <time>2024-07-22T10:27:36.507Z</time>
      </trkpt>
      <trkpt lat="45.58135" lon="5.97861">
        <ele>345.849111</ele>
        <time>2024-07-22T10:27:38.384Z</time>
      </trkpt>
      <trkpt lat="45.58131" lon="5.97841">
        <ele>345.307026</ele>
        <time>2024-07-22T10:27:42.001Z</time>
      </trkpt>
      <trkpt lat="45.58132" lon="5.9783">
        <ele>345.013702</ele>
        <time>2024-07-22T10:27:43.833Z</time>
      </trkpt>
      <trkpt lat="45.58174" lon="5.97762">
        <ele>342.604854</ele>
        <time>2024-07-22T10:27:53.273Z</time>
      </trkpt>
      <trkpt lat="45.58186" lon="5.97723">
        <ele>341.489258</ele>
        <time>2024-07-22T10:27:57.459Z</time>
      </trkpt>
      <trkpt lat="45.58197" lon="5.97709">
        <ele>340.915423</ele>
        <time>2024-07-22T10:27:59.576Z</time>
      </trkpt>
      <trkpt lat="45.5821" lon="5.97688">
        <ele>339.873635</ele>
        <time>2024-07-22T10:28:02.090Z</time>
      </trkpt>
      <trkpt lat="45.58212" lon="5.97679">
        <ele>339.487424</ele>
        <time>2024-07-22T10:28:03.035Z</time>
      </trkpt>
      <trkpt lat="45.58212" lon="5.97669">
        <ele>339.109291</ele>
        <time>2024-07-22T10:28:03.998Z</time>
      </trkpt>
      <trkpt lat="45.58207" lon="5.97657">
        <ele>338.571308</ele>
        <time>2024-07-22T10:28:05.276Z</time>
      </trkpt>
      <trkpt lat="45.58198" lon="5.9765">
        <ele>338.017773</ele>
        <time>2024-07-22T10:28:06.543Z</time>
      </trkpt>
      <trkpt lat="45.58189" lon="5.97643">
        <ele>337.463564</ele>
        <time>2024-07-22T10:28:07.827Z</time>
      </trkpt>
      <trkpt lat="45.58178" lon="5.97634">
        <ele>336.795003</ele>
        <time>2024-07-22T10:28:09.524Z</time>
      </trkpt>
      <trkpt lat="45.58159" lon="5.97617">
        <ele>335.592876</ele>
        <time>2024-07-22T10:28:12.533Z</time>
      </trkpt>
      <trkpt lat="45.58141" lon="5.97613">
        <ele>334.589276</ele>
        <time>2024-07-22T10:28:15.679Z</time>
      </trkpt>
      <trkpt lat="45.58131" lon="5.97609">
        <ele>334.012752</ele>
        <time>2024-07-22T10:28:17.276Z</time>
      </trkpt>
      <trkpt lat="45.58101" lon="5.97596">
        <ele>332.341709</ele>
        <time>2024-07-22T10:28:22.337Z</time>
      </trkpt>
      <trkpt lat="45.58085" lon="5.97586">
        <ele>331.355734</ele>
        <time>2024-07-22T10:28:24.913Z</time>
      </trkpt>
      <trkpt lat="45.58073" lon="5.97575">
        <ele>330.71552</ele>
        <time>2024-07-22T10:28:26.945Z</time>
      </trkpt>
      <trkpt lat="45.58053" lon="5.97558">
        <ele>329.78189</ele>
        <time>2024-07-22T10:28:29.985Z</time>
      </trkpt>
      <trkpt lat="45.58031" lon="5.97541">
        <ele>328.750335</ele>
        <time>2024-07-22T10:28:33.628Z</time>
      </trkpt>
      <trkpt lat="45.58011" lon="5.97533">
        <ele>327.870423</ele>
        <time>2024-07-22T10:28:36.802Z</time>
      </trkpt>
      <trkpt lat="45.57964" lon="5.97511">
        <ele>325.834013</ele>
        <time>2024-07-22T10:28:44.105Z</time>
      </trkpt>
      <trkpt lat="45.57947" lon="5.97504">
        <ele>325.098776</ele>
        <time>2024-07-22T10:28:46.721Z</time>
      </trkpt>
      <trkpt lat="45.57859" lon="5.9748">
        <ele>321.599801</ele>
        <time>2024-07-22T10:29:00.007Z</time>
      </trkpt>
      <trkpt lat="45.57838" lon="5.97466">
        <ele>320.704162</ele>
        <time>2024-07-22T10:29:03.404Z</time>
      </trkpt>
      <trkpt lat="45.57807" lon="5.97446">
        <ele>319.427897</ele>
        <time>2024-07-22T10:29:08.312Z</time>
      </trkpt>
      <trkpt lat="45.57764" lon="5.97382">
        <ele>317.077864</ele>
        <time>2024-07-22T10:29:17.636Z</time>
      </trkpt>
      <trkpt lat="45.57768" lon="5.97371">
        <ele>316.809265</ele>
        <time>2024-07-22T10:29:18.866Z</time>
      </trkpt>
      <trkpt lat="45.57766" lon="5.97361">
        <ele>316.616629</ele>
        <time>2024-07-22T10:29:19.951Z</time>
      </trkpt>
      <trkpt lat="45.57749" lon="5.97329">
        <ele>315.896815</ele>
        <time>2024-07-22T10:29:24.032Z</time>
      </trkpt>
      <trkpt lat="45.57744" lon="5.97312">
        <ele>315.559442</ele>
        <time>2024-07-22T10:29:25.956Z</time>
      </trkpt>
      <trkpt lat="45.57741" lon="5.97295">
        <ele>315.246983</ele>
        <time>2024-07-22T10:29:27.738Z</time>
      </trkpt>
      <trkpt lat="45.57744" lon="5.9728">
        <ele>314.970613</ele>
        <time>2024-07-22T10:29:29.353Z</time>
      </trkpt>
      <trkpt lat="45.57737" lon="5.9722">
        <ele>313.885729</ele>
        <time>2024-07-22T10:29:35.688Z</time>
      </trkpt>
      <trkpt lat="45.57695" lon="5.97108">
        <ele>311.821182</ele>
        <time>2024-07-22T10:29:49.427Z</time>
      </trkpt>
      <trkpt lat="45.57672" lon="5.97075">
        <ele>311.243375</ele>
        <time>2024-07-22T10:29:54.604Z</time>
      </trkpt>
      <trkpt lat="45.57662" lon="5.97054">
        <ele>310.927322</ele>
        <time>2024-07-22T10:29:57.414Z</time>
      </trkpt>
      <trkpt lat="45.57659" lon="5.97047">
        <ele>310.823996</ele>
        <time>2024-07-22T10:29:58.348Z</time>
      </trkpt>
      <trkpt lat="45.57609" lon="5.96923">
        <ele>309.075402</ele>
        <time>2024-07-22T10:30:14.118Z</time>
      </trkpt>
      <trkpt lat="45.57603" lon="5.96912">
        <ele>308.930583</ele>
        <time>2024-07-22T10:30:15.801Z</time>
      </trkpt>
      <trkpt lat="45.5759" lon="5.96901">
        <ele>308.71476</ele>
        <time>2024-07-22T10:30:18.302Z</time>
      </trkpt>
      <trkpt lat="45.57572" lon="5.96905">
        <ele>308.462366</ele>
        <time>2024-07-22T10:30:21.216Z</time>
      </trkpt>
      <trkpt lat="45.57566" lon="5.96902">
        <ele>308.379372</ele>
        <time>2024-07-22T10:30:22.172Z</time>
      </trkpt>
      <trkpt lat="45.57546" lon="5.96815">
        <ele>307.479292</ele>
        <time>2024-07-22T10:30:32.760Z</time>
      </trkpt>
      <trkpt lat="45.57542" lon="5.96807">
        <ele>307.388993</ele>
        <time>2024-07-22T10:30:33.802Z</time>
      </trkpt>
      <trkpt lat="45.57537" lon="5.96805">
        <ele>307.307245</ele>
        <time>2024-07-22T10:30:34.765Z</time>
      </trkpt>
      <trkpt lat="45.57531" lon="5.96806">
        <ele>307.224066</ele>
        <time>2024-07-22T10:30:36.493Z</time>
      </trkpt>
      <trkpt lat="45.57524" lon="5.96798">
        <ele>307.098674</ele>
        <time>2024-07-22T10:30:39.070Z</time>
      </trkpt>
      <trkpt lat="45.57629" lon="5.96682">
        <ele>305.53832</ele>
        <time>2024-07-22T10:31:00.810Z</time>
      </trkpt>
      <trkpt lat="45.57701" lon="5.96586">
        <ele>304.532848</ele>
        <time>2024-07-22T10:31:17.735Z</time>
      </trkpt>
      <trkpt lat="45.57709" lon="5.9657">
        <ele>304.434257</ele>
        <time>2024-07-22T10:31:20.214Z</time>
      </trkpt>
      <trkpt lat="45.57711" lon="5.96553">
        <ele>304.350782</ele>
        <time>2024-07-22T10:31:22.384Z</time>
      </trkpt>
      <trkpt lat="45.57709" lon="5.9652">
        <ele>304.19129</ele>
        <time>2024-07-22T10:31:26.357Z</time>
      </trkpt>
      <trkpt lat="45.57717" lon="5.96514">
        <ele>304.13308</ele>
        <time>2024-07-22T10:31:28.932Z</time>
      </trkpt>
      <trkpt lat="45.57724" lon="5.96505">
        <ele>304.064752</ele>
        <time>2024-07-22T10:31:31.885Z</time>
      </trkpt>
      <trkpt lat="45.57727" lon="5.96502">
        <ele>304.040529</ele>
        <time>2024-07-22T10:31:32.930Z</time>
      </trkpt>
      <trkpt lat="45.57752" lon="5.96515">
        <ele>303.857641</ele>
        <time>2024-07-22T10:31:37.612Z</time>
      </trkpt>
      <trkpt lat="45.57755" lon="5.96519">
        <ele>303.830903</ele>
        <time>2024-07-22T10:31:38.284Z</time>
      </trkpt>
      <trkpt lat="45.57757" lon="5.96527">
        <ele>303.789609</ele>
        <time>2024-07-22T10:31:40.042Z</time>
      </trkpt>
      <trkpt lat="45.57767" lon="5.96512">
        <ele>303.688397</ele>
        <time>2024-07-22T10:31:42.637Z</time>
      </trkpt>
      <trkpt lat="45.5778" lon="5.96493">
        <ele>303.559846</ele>
        <time>2024-07-22T10:31:45.950Z</time>
      </trkpt>
      <trkpt lat="45.57786" lon="5.96483">
        <ele>303.499186</ele>
        <time>2024-07-22T10:31:47.462Z</time>
      </trkpt>
      <trkpt lat="45.57799" lon="5.96467">
        <ele>303.372377</ele>
        <time>2024-07-22T10:31:50.603Z</time>
      </trkpt>
      <trkpt lat="45.57822" lon="5.96439">
        <ele>303.137283</ele>
        <time>2024-07-22T10:31:55.920Z</time>
      </trkpt>
      <trkpt lat="45.57857" lon="5.96393">
        <ele>302.768357</ele>
        <time>2024-07-22T10:32:04.202Z</time>
      </trkpt>
      <trkpt lat="45.57878" lon="5.96367">
        <ele>302.556562</ele>
        <time>2024-07-22T10:32:08.944Z</time>
      </trkpt>
      <trkpt lat="45.57893" lon="5.96353">
        <ele>302.415833</ele>
        <time>2024-07-22T10:32:12.083Z</time>
      </trkpt>
      <trkpt lat="45.57896" lon="5.96347">
        <ele>302.374026</ele>
        <time>2024-07-22T10:32:13.016Z</time>
      </trkpt>
      <trkpt lat="45.57905" lon="5.9633">
        <ele>302.259238</ele>
        <time>2024-07-22T10:32:15.512Z</time>
      </trkpt>
      <trkpt lat="45.57914" lon="5.96304">
        <ele>302.102936</ele>
        <time>2024-07-22T10:32:19.035Z</time>
      </trkpt>
      <trkpt lat="45.57917" lon="5.96302">
        <ele>302.076481</ele>
        <time>2024-07-22T10:32:19.622Z</time>
      </trkpt>
      <trkpt lat="45.57927" lon="5.96278">
        <ele>301.902944</ele>
        <time>2024-07-22T10:32:22.803Z</time>
      </trkpt>
      <trkpt lat="45.57952" lon="5.96225">
        <ele>301.450847</ele>
        <time>2024-07-22T10:32:30.616Z</time>
      </trkpt>
      <trkpt lat="45.5797" lon="5.96182">
        <ele>301.108939</ele>
        <time>2024-07-22T10:32:36.442Z</time>
      </trkpt>
      <trkpt lat="45.57971" lon="5.96178">
        <ele>301.074541</ele>
        <time>2024-07-22T10:32:37.039Z</time>
      </trkpt>
      <trkpt lat="45.57981" lon="5.9614">
        <ele>300.796434</ele>
        <time>2024-07-22T10:32:41.686Z</time>
      </trkpt>
      <trkpt lat="45.57988" lon="5.9611">
        <ele>300.576959</ele>
        <time>2024-07-22T10:32:45.484Z</time>
      </trkpt>
      <trkpt lat="45.5799" lon="5.96095">
        <ele>300.468352</ele>
        <time>2024-07-22T10:32:47.227Z</time>
      </trkpt>
      <trkpt lat="45.57994" lon="5.96074">
        <ele>300.320064</ele>
        <time>2024-07-22T10:32:49.790Z</time>
      </trkpt>
      <trkpt lat="45.58" lon="5.96056">
        <ele>300.232911</ele>
        <time>2024-07-22T10:32:52.127Z</time>
      </trkpt>
      <trkpt lat="45.58007" lon="5.96046">
        <ele>300.232911</ele>
        <time>2024-07-22T10:32:53.834Z</time>
      </trkpt>
      <trkpt lat="45.58007" lon="5.96033">
        <ele>300.232911</ele>
        <time>2024-07-22T10:32:55.407Z</time>
      </trkpt>
      <trkpt lat="45.58003" lon="5.96024">
        <ele>300.232911</ele>
        <time>2024-07-22T10:32:56.639Z</time>
      </trkpt>
      <trkpt lat="45.58023" lon="5.95969">
        <ele>300.232911</ele>
        <time>2024-07-22T10:33:06.412Z</time>
      </trkpt>
      <trkpt lat="45.58021" lon="5.95964">
        <ele>300.232911</ele>
        <time>2024-07-22T10:33:07.169Z</time>
      </trkpt>
      <trkpt lat="45.58014" lon="5.95958">
        <ele>300.232911</ele>
        <time>2024-07-22T10:33:09.122Z</time>
      </trkpt>
      <trkpt lat="45.58031" lon="5.95895">
        <ele>300.232911</ele>
        <time>2024-07-22T10:33:17.197Z</time>
      </trkpt>
      <trkpt lat="45.58032" lon="5.9589">
        <ele>300.232911</ele>
        <time>2024-07-22T10:33:17.724Z</time>
      </trkpt>
      <trkpt lat="45.58044" lon="5.95866">
        <ele>300.232911</ele>
        <time>2024-07-22T10:33:21.268Z</time>
      </trkpt>
      <trkpt lat="45.58047" lon="5.95853">
        <ele>300.232911</ele>
        <time>2024-07-22T10:33:22.948Z</time>
      </trkpt>
    </trkseg>
  </trk>
</gpx>